<?xml version="1.0" encoding="UTF-8" standalone="no" ?>
<gpx xmlns="http://www.topografix.com/GPX/1/1" xmlns:xsi="http://www.w3.org/2001/XMLSchema-instance" xsi:schemaLocation="http://www.topografix.com/GPX/1/1 http://www.topografix.com/GPX/1/1/gpx.xsd" version="1.1" creator="VisuGPX - https://www.visugpx.com">
  <metadata>
    <name>Col de Balme</name>
    <desc><![CDATA[Col de Balme]]></desc>
  </metadata>
  <trk>
    <name><![CDATA[2013-11-28-01 Col de Balme]]></name>
    <trkseg>
      <trkpt lat="45.91077" lon="6.46623">
        <ele>1280.2</ele>
        <time>2013-11-28T09:05:53Z</time>
      </trkpt>
      <trkpt lat="45.91078" lon="6.46623">
        <ele>1280.2</ele>
        <time>2013-11-28T09:05:54Z</time>
      </trkpt>
      <trkpt lat="45.91074" lon="6.46636">
        <ele>1280.7</ele>
        <time>2013-11-28T09:06:39Z</time>
      </trkpt>
      <trkpt lat="45.91072" lon="6.46649">
        <ele>1279.7</ele>
        <time>2013-11-28T09:06:49Z</time>
      </trkpt>
      <trkpt lat="45.9107" lon="6.46663">
        <ele>1281.1</ele>
        <time>2013-11-28T09:06:56Z</time>
      </trkpt>
      <trkpt lat="45.91068" lon="6.46676">
        <ele>1280.9</ele>
        <time>2013-11-28T09:07:03Z</time>
      </trkpt>
      <trkpt lat="45.91064" lon="6.46689">
        <ele>1281.8</ele>
        <time>2013-11-28T09:07:11Z</time>
      </trkpt>
      <trkpt lat="45.91061" lon="6.46702">
        <ele>1281.5</ele>
        <time>2013-11-28T09:07:18Z</time>
      </trkpt>
      <trkpt lat="45.91061" lon="6.46717">
        <ele>1282.4</ele>
        <time>2013-11-28T09:07:25Z</time>
      </trkpt>
      <trkpt lat="45.91063" lon="6.46731">
        <ele>1281.6</ele>
        <time>2013-11-28T09:07:32Z</time>
      </trkpt>
      <trkpt lat="45.91063" lon="6.46745">
        <ele>1281</ele>
        <time>2013-11-28T09:07:56Z</time>
      </trkpt>
      <trkpt lat="45.91061" lon="6.46758">
        <ele>1282.5</ele>
        <time>2013-11-28T09:08:05Z</time>
      </trkpt>
      <trkpt lat="45.9106" lon="6.46772">
        <ele>1283.1</ele>
        <time>2013-11-28T09:08:14Z</time>
      </trkpt>
      <trkpt lat="45.91058" lon="6.46785">
        <ele>1283.2</ele>
        <time>2013-11-28T09:08:22Z</time>
      </trkpt>
      <trkpt lat="45.91053" lon="6.46797">
        <ele>1284.6</ele>
        <time>2013-11-28T09:08:30Z</time>
      </trkpt>
      <trkpt lat="45.91048" lon="6.46809">
        <ele>1283</ele>
        <time>2013-11-28T09:08:38Z</time>
      </trkpt>
      <trkpt lat="45.91045" lon="6.46822">
        <ele>1283.9</ele>
        <time>2013-11-28T09:08:46Z</time>
      </trkpt>
      <trkpt lat="45.91043" lon="6.46835">
        <ele>1284.5</ele>
        <time>2013-11-28T09:08:54Z</time>
      </trkpt>
      <trkpt lat="45.91041" lon="6.46848">
        <ele>1284.9</ele>
        <time>2013-11-28T09:09:02Z</time>
      </trkpt>
      <trkpt lat="45.91039" lon="6.4686">
        <ele>1284.6</ele>
        <time>2013-11-28T09:09:10Z</time>
      </trkpt>
      <trkpt lat="45.91037" lon="6.46874">
        <ele>1285.7</ele>
        <time>2013-11-28T09:09:19Z</time>
      </trkpt>
      <trkpt lat="45.91034" lon="6.46886">
        <ele>1287.4</ele>
        <time>2013-11-28T09:09:28Z</time>
      </trkpt>
      <trkpt lat="45.91031" lon="6.46899">
        <ele>1288.3</ele>
        <time>2013-11-28T09:09:38Z</time>
      </trkpt>
      <trkpt lat="45.91028" lon="6.46911">
        <ele>1290</ele>
        <time>2013-11-28T09:09:48Z</time>
      </trkpt>
      <trkpt lat="45.91025" lon="6.46923">
        <ele>1291.9</ele>
        <time>2013-11-28T09:09:58Z</time>
      </trkpt>
      <trkpt lat="45.91021" lon="6.46936">
        <ele>1293.9</ele>
        <time>2013-11-28T09:10:09Z</time>
      </trkpt>
      <trkpt lat="45.91016" lon="6.46948">
        <ele>1296.6</ele>
        <time>2013-11-28T09:10:19Z</time>
      </trkpt>
      <trkpt lat="45.91011" lon="6.46959">
        <ele>1297.7</ele>
        <time>2013-11-28T09:10:29Z</time>
      </trkpt>
      <trkpt lat="45.91006" lon="6.46971">
        <ele>1298.3</ele>
        <time>2013-11-28T09:10:39Z</time>
      </trkpt>
      <trkpt lat="45.91001" lon="6.46983">
        <ele>1300.8</ele>
        <time>2013-11-28T09:10:50Z</time>
      </trkpt>
      <trkpt lat="45.90996" lon="6.46993">
        <ele>1302.2</ele>
        <time>2013-11-28T09:11:00Z</time>
      </trkpt>
      <trkpt lat="45.90989" lon="6.47003">
        <ele>1306</ele>
        <time>2013-11-28T09:11:11Z</time>
      </trkpt>
      <trkpt lat="45.90983" lon="6.47014">
        <ele>1307.1</ele>
        <time>2013-11-28T09:11:21Z</time>
      </trkpt>
      <trkpt lat="45.9097" lon="6.47033">
        <ele>1307.8</ele>
        <time>2013-11-28T09:11:40Z</time>
      </trkpt>
      <trkpt lat="45.90964" lon="6.47043">
        <ele>1309.2</ele>
        <time>2013-11-28T09:11:49Z</time>
      </trkpt>
      <trkpt lat="45.90958" lon="6.47053">
        <ele>1309.3</ele>
        <time>2013-11-28T09:11:58Z</time>
      </trkpt>
      <trkpt lat="45.90952" lon="6.47064">
        <ele>1310.6</ele>
        <time>2013-11-28T09:12:07Z</time>
      </trkpt>
      <trkpt lat="45.90947" lon="6.47075">
        <ele>1311.6</ele>
        <time>2013-11-28T09:12:15Z</time>
      </trkpt>
      <trkpt lat="45.9094" lon="6.47086">
        <ele>1312.5</ele>
        <time>2013-11-28T09:12:24Z</time>
      </trkpt>
      <trkpt lat="45.90929" lon="6.47107">
        <ele>1313.7</ele>
        <time>2013-11-28T09:12:42Z</time>
      </trkpt>
      <trkpt lat="45.90923" lon="6.47118">
        <ele>1315.6</ele>
        <time>2013-11-28T09:12:52Z</time>
      </trkpt>
      <trkpt lat="45.90918" lon="6.47129">
        <ele>1316.2</ele>
        <time>2013-11-28T09:13:01Z</time>
      </trkpt>
      <trkpt lat="45.90912" lon="6.47139">
        <ele>1317.4</ele>
        <time>2013-11-28T09:13:11Z</time>
      </trkpt>
      <trkpt lat="45.90906" lon="6.4715">
        <ele>1319.3</ele>
        <time>2013-11-28T09:13:21Z</time>
      </trkpt>
      <trkpt lat="45.90899" lon="6.4716">
        <ele>1321.8</ele>
        <time>2013-11-28T09:13:31Z</time>
      </trkpt>
      <trkpt lat="45.90884" lon="6.47176">
        <ele>1324.9</ele>
        <time>2013-11-28T09:13:52Z</time>
      </trkpt>
      <trkpt lat="45.90876" lon="6.47184">
        <ele>1326.3</ele>
        <time>2013-11-28T09:14:03Z</time>
      </trkpt>
      <trkpt lat="45.90869" lon="6.47191">
        <ele>1328.6</ele>
        <time>2013-11-28T09:14:13Z</time>
      </trkpt>
      <trkpt lat="45.90861" lon="6.47199">
        <ele>1330.8</ele>
        <time>2013-11-28T09:14:24Z</time>
      </trkpt>
      <trkpt lat="45.90853" lon="6.47206">
        <ele>1332</ele>
        <time>2013-11-28T09:14:34Z</time>
      </trkpt>
      <trkpt lat="45.90837" lon="6.4722">
        <ele>1335.9</ele>
        <time>2013-11-28T09:14:54Z</time>
      </trkpt>
      <trkpt lat="45.90829" lon="6.47228">
        <ele>1337.5</ele>
        <time>2013-11-28T09:15:04Z</time>
      </trkpt>
      <trkpt lat="45.90822" lon="6.47236">
        <ele>1338</ele>
        <time>2013-11-28T09:15:13Z</time>
      </trkpt>
      <trkpt lat="45.90815" lon="6.47244">
        <ele>1339.9</ele>
        <time>2013-11-28T09:15:23Z</time>
      </trkpt>
      <trkpt lat="45.90806" lon="6.47249">
        <ele>1342.6</ele>
        <time>2013-11-28T09:15:38Z</time>
      </trkpt>
      <trkpt lat="45.90789" lon="6.4726">
        <ele>1348.6</ele>
        <time>2013-11-28T09:16:05Z</time>
      </trkpt>
      <trkpt lat="45.90781" lon="6.47265">
        <ele>1351.8</ele>
        <time>2013-11-28T09:16:18Z</time>
      </trkpt>
      <trkpt lat="45.90772" lon="6.4727">
        <ele>1355.6</ele>
        <time>2013-11-28T09:16:32Z</time>
      </trkpt>
      <trkpt lat="45.90762" lon="6.47268">
        <ele>1359.4</ele>
        <time>2013-11-28T09:16:47Z</time>
      </trkpt>
      <trkpt lat="45.90745" lon="6.47266">
        <ele>1364.8</ele>
        <time>2013-11-28T09:17:14Z</time>
      </trkpt>
      <trkpt lat="45.90736" lon="6.4727">
        <ele>1368.7</ele>
        <time>2013-11-28T09:17:28Z</time>
      </trkpt>
      <trkpt lat="45.9073" lon="6.47261">
        <ele>1371.6</ele>
        <time>2013-11-28T09:17:41Z</time>
      </trkpt>
      <trkpt lat="45.90726" lon="6.47248">
        <ele>1372.4</ele>
        <time>2013-11-28T09:17:53Z</time>
      </trkpt>
      <trkpt lat="45.90723" lon="6.47222">
        <ele>1376.1</ele>
        <time>2013-11-28T09:18:14Z</time>
      </trkpt>
      <trkpt lat="45.90721" lon="6.47209">
        <ele>1376.5</ele>
        <time>2013-11-28T09:18:24Z</time>
      </trkpt>
      <trkpt lat="45.9072" lon="6.47196">
        <ele>1377.8</ele>
        <time>2013-11-28T09:18:34Z</time>
      </trkpt>
      <trkpt lat="45.90719" lon="6.47183">
        <ele>1379.8</ele>
        <time>2013-11-28T09:18:45Z</time>
      </trkpt>
      <trkpt lat="45.90715" lon="6.4717">
        <ele>1381.9</ele>
        <time>2013-11-28T09:18:56Z</time>
      </trkpt>
      <trkpt lat="45.90705" lon="6.47146">
        <ele>1386.5</ele>
        <time>2013-11-28T09:19:19Z</time>
      </trkpt>
      <trkpt lat="45.90699" lon="6.47136">
        <ele>1388.8</ele>
        <time>2013-11-28T09:19:30Z</time>
      </trkpt>
      <trkpt lat="45.90692" lon="6.47128">
        <ele>1390.7</ele>
        <time>2013-11-28T09:19:40Z</time>
      </trkpt>
      <trkpt lat="45.90683" lon="6.47123">
        <ele>1391.1</ele>
        <time>2013-11-28T09:19:51Z</time>
      </trkpt>
      <trkpt lat="45.90674" lon="6.47117">
        <ele>1392.9</ele>
        <time>2013-11-28T09:20:01Z</time>
      </trkpt>
      <trkpt lat="45.90656" lon="6.4711">
        <ele>1395.3</ele>
        <time>2013-11-28T09:20:18Z</time>
      </trkpt>
      <trkpt lat="45.90647" lon="6.47106">
        <ele>1395</ele>
        <time>2013-11-28T09:20:27Z</time>
      </trkpt>
      <trkpt lat="45.90638" lon="6.47103">
        <ele>1396.9</ele>
        <time>2013-11-28T09:20:36Z</time>
      </trkpt>
      <trkpt lat="45.90629" lon="6.47104">
        <ele>1397.9</ele>
        <time>2013-11-28T09:20:45Z</time>
      </trkpt>
      <trkpt lat="45.9062" lon="6.47106">
        <ele>1398.7</ele>
        <time>2013-11-28T09:20:54Z</time>
      </trkpt>
      <trkpt lat="45.90611" lon="6.47108">
        <ele>1400.3</ele>
        <time>2013-11-28T09:21:04Z</time>
      </trkpt>
      <trkpt lat="45.90592" lon="6.47114">
        <ele>1403.7</ele>
        <time>2013-11-28T09:21:23Z</time>
      </trkpt>
      <trkpt lat="45.90583" lon="6.47119">
        <ele>1406.3</ele>
        <time>2013-11-28T09:23:22Z</time>
      </trkpt>
      <trkpt lat="45.90565" lon="6.47127">
        <ele>1409.2</ele>
        <time>2013-11-28T09:23:42Z</time>
      </trkpt>
      <trkpt lat="45.90556" lon="6.47132">
        <ele>1410.8</ele>
        <time>2013-11-28T09:23:52Z</time>
      </trkpt>
      <trkpt lat="45.90547" lon="6.47136">
        <ele>1413.6</ele>
        <time>2013-11-28T09:24:03Z</time>
      </trkpt>
      <trkpt lat="45.90538" lon="6.47141">
        <ele>1417.2</ele>
        <time>2013-11-28T09:24:15Z</time>
      </trkpt>
      <trkpt lat="45.90529" lon="6.47143">
        <ele>1418.4</ele>
        <time>2013-11-28T09:24:26Z</time>
      </trkpt>
      <trkpt lat="45.9051" lon="6.4715">
        <ele>1423.1</ele>
        <time>2013-11-28T09:24:50Z</time>
      </trkpt>
      <trkpt lat="45.90502" lon="6.47154">
        <ele>1425.7</ele>
        <time>2013-11-28T09:25:01Z</time>
      </trkpt>
      <trkpt lat="45.90493" lon="6.47158">
        <ele>1428.5</ele>
        <time>2013-11-28T09:25:13Z</time>
      </trkpt>
      <trkpt lat="45.90483" lon="6.47162">
        <ele>1429.6</ele>
        <time>2013-11-28T09:25:25Z</time>
      </trkpt>
      <trkpt lat="45.90474" lon="6.47164">
        <ele>1431.9</ele>
        <time>2013-11-28T09:25:37Z</time>
      </trkpt>
      <trkpt lat="45.90456" lon="6.47171">
        <ele>1437.5</ele>
        <time>2013-11-28T09:26:02Z</time>
      </trkpt>
      <trkpt lat="45.90447" lon="6.47175">
        <ele>1439.5</ele>
        <time>2013-11-28T09:26:15Z</time>
      </trkpt>
      <trkpt lat="45.90438" lon="6.4718">
        <ele>1443.1</ele>
        <time>2013-11-28T09:26:28Z</time>
      </trkpt>
      <trkpt lat="45.9043" lon="6.47186">
        <ele>1445.9</ele>
        <time>2013-11-28T09:26:41Z</time>
      </trkpt>
      <trkpt lat="45.90414" lon="6.47202">
        <ele>1452.3</ele>
        <time>2013-11-28T09:27:17Z</time>
      </trkpt>
      <trkpt lat="45.90409" lon="6.47212">
        <ele>1454.4</ele>
        <time>2013-11-28T09:27:36Z</time>
      </trkpt>
      <trkpt lat="45.90406" lon="6.47224">
        <ele>1456.4</ele>
        <time>2013-11-28T09:27:48Z</time>
      </trkpt>
      <trkpt lat="45.9041" lon="6.47251">
        <ele>1462.1</ele>
        <time>2013-11-28T09:28:13Z</time>
      </trkpt>
      <trkpt lat="45.90415" lon="6.47263">
        <ele>1465.4</ele>
        <time>2013-11-28T09:28:26Z</time>
      </trkpt>
      <trkpt lat="45.90421" lon="6.47273">
        <ele>1468.7</ele>
        <time>2013-11-28T09:28:39Z</time>
      </trkpt>
      <trkpt lat="45.90429" lon="6.47282">
        <ele>1471.1</ele>
        <time>2013-11-28T09:28:53Z</time>
      </trkpt>
      <trkpt lat="45.90441" lon="6.47302">
        <ele>1477.2</ele>
        <time>2013-11-28T09:29:19Z</time>
      </trkpt>
      <trkpt lat="45.90445" lon="6.47313">
        <ele>1480.4</ele>
        <time>2013-11-28T09:29:32Z</time>
      </trkpt>
      <trkpt lat="45.90451" lon="6.47323">
        <ele>1480.8</ele>
        <time>2013-11-28T09:29:45Z</time>
      </trkpt>
      <trkpt lat="45.90458" lon="6.47333">
        <ele>1483.4</ele>
        <time>2013-11-28T09:29:56Z</time>
      </trkpt>
      <trkpt lat="45.90475" lon="6.47345">
        <ele>1487.2</ele>
        <time>2013-11-28T09:30:20Z</time>
      </trkpt>
      <trkpt lat="45.9048" lon="6.47354">
        <ele>1489.6</ele>
        <time>2013-11-28T09:30:31Z</time>
      </trkpt>
      <trkpt lat="45.90481" lon="6.47368">
        <ele>1492</ele>
        <time>2013-11-28T09:30:42Z</time>
      </trkpt>
      <trkpt lat="45.90477" lon="6.4738">
        <ele>1492.7</ele>
        <time>2013-11-28T09:30:53Z</time>
      </trkpt>
      <trkpt lat="45.90472" lon="6.47392">
        <ele>1495.5</ele>
        <time>2013-11-28T09:31:05Z</time>
      </trkpt>
      <trkpt lat="45.9046" lon="6.47412">
        <ele>1499.6</ele>
        <time>2013-11-28T09:31:28Z</time>
      </trkpt>
      <trkpt lat="45.90454" lon="6.47422">
        <ele>1502.8</ele>
        <time>2013-11-28T09:31:41Z</time>
      </trkpt>
      <trkpt lat="45.90446" lon="6.47429">
        <ele>1505.5</ele>
        <time>2013-11-28T09:31:54Z</time>
      </trkpt>
      <trkpt lat="45.90437" lon="6.47433">
        <ele>1508.9</ele>
        <time>2013-11-28T09:32:07Z</time>
      </trkpt>
      <trkpt lat="45.90419" lon="6.47434">
        <ele>1513.8</ele>
        <time>2013-11-28T09:32:32Z</time>
      </trkpt>
      <trkpt lat="45.90409" lon="6.47431">
        <ele>1517.9</ele>
        <time>2013-11-28T09:32:47Z</time>
      </trkpt>
      <trkpt lat="45.90401" lon="6.47425">
        <ele>1520.1</ele>
        <time>2013-11-28T09:33:01Z</time>
      </trkpt>
      <trkpt lat="45.90392" lon="6.4743">
        <ele>1524.6</ele>
        <time>2013-11-28T09:33:16Z</time>
      </trkpt>
      <trkpt lat="45.90379" lon="6.47448">
        <ele>1530.8</ele>
        <time>2013-11-28T09:33:44Z</time>
      </trkpt>
      <trkpt lat="45.9037" lon="6.4745">
        <ele>1534.5</ele>
        <time>2013-11-28T09:34:01Z</time>
      </trkpt>
      <trkpt lat="45.90361" lon="6.47447">
        <ele>1536.9</ele>
        <time>2013-11-28T09:34:15Z</time>
      </trkpt>
      <trkpt lat="45.90352" lon="6.47443">
        <ele>1539.5</ele>
        <time>2013-11-28T09:34:29Z</time>
      </trkpt>
      <trkpt lat="45.90339" lon="6.4746">
        <ele>1547.2</ele>
        <time>2013-11-28T09:35:03Z</time>
      </trkpt>
      <trkpt lat="45.90334" lon="6.47471">
        <ele>1552.6</ele>
        <time>2013-11-28T09:35:20Z</time>
      </trkpt>
      <trkpt lat="45.90325" lon="6.47465">
        <ele>1553.2</ele>
        <time>2013-11-28T09:35:32Z</time>
      </trkpt>
      <trkpt lat="45.90308" lon="6.47453">
        <ele>1557.7</ele>
        <time>2013-11-28T09:35:56Z</time>
      </trkpt>
      <trkpt lat="45.90299" lon="6.47451">
        <ele>1560.7</ele>
        <time>2013-11-28T09:36:08Z</time>
      </trkpt>
      <trkpt lat="45.9029" lon="6.47451">
        <ele>1563.6</ele>
        <time>2013-11-28T09:36:22Z</time>
      </trkpt>
      <trkpt lat="45.90281" lon="6.47451">
        <ele>1566.6</ele>
        <time>2013-11-28T09:36:35Z</time>
      </trkpt>
      <trkpt lat="45.90263" lon="6.47449">
        <ele>1572.7</ele>
        <time>2013-11-28T09:37:03Z</time>
      </trkpt>
      <trkpt lat="45.90253" lon="6.47449">
        <ele>1576.1</ele>
        <time>2013-11-28T09:37:17Z</time>
      </trkpt>
      <trkpt lat="45.90244" lon="6.47451">
        <ele>1578.4</ele>
        <time>2013-11-28T09:37:32Z</time>
      </trkpt>
      <trkpt lat="45.90235" lon="6.47453">
        <ele>1582.4</ele>
        <time>2013-11-28T09:37:48Z</time>
      </trkpt>
      <trkpt lat="45.90237" lon="6.47479">
        <ele>1588.3</ele>
        <time>2013-11-28T09:38:21Z</time>
      </trkpt>
      <trkpt lat="45.90238" lon="6.47492">
        <ele>1590.6</ele>
        <time>2013-11-28T09:38:44Z</time>
      </trkpt>
      <trkpt lat="45.90239" lon="6.47506">
        <ele>1594.8</ele>
        <time>2013-11-28T09:39:07Z</time>
      </trkpt>
      <trkpt lat="45.9022" lon="6.4751">
        <ele>1602.3</ele>
        <time>2013-11-28T09:40:16Z</time>
      </trkpt>
      <trkpt lat="45.90202" lon="6.4751">
        <ele>1606.9</ele>
        <time>2013-11-28T09:40:42Z</time>
      </trkpt>
      <trkpt lat="45.90195" lon="6.47518">
        <ele>1609.8</ele>
        <time>2013-11-28T09:41:01Z</time>
      </trkpt>
      <trkpt lat="45.90196" lon="6.47532">
        <ele>1611.9</ele>
        <time>2013-11-28T09:41:16Z</time>
      </trkpt>
      <trkpt lat="45.90197" lon="6.47545">
        <ele>1615.6</ele>
        <time>2013-11-28T09:41:32Z</time>
      </trkpt>
      <trkpt lat="45.90178" lon="6.47541">
        <ele>1621.1</ele>
        <time>2013-11-28T09:42:12Z</time>
      </trkpt>
      <trkpt lat="45.90169" lon="6.4754">
        <ele>1623.9</ele>
        <time>2013-11-28T09:42:24Z</time>
      </trkpt>
      <trkpt lat="45.90167" lon="6.47553">
        <ele>1628.4</ele>
        <time>2013-11-28T09:42:42Z</time>
      </trkpt>
      <trkpt lat="45.90172" lon="6.4758">
        <ele>1633.5</ele>
        <time>2013-11-28T09:43:09Z</time>
      </trkpt>
      <trkpt lat="45.90174" lon="6.47593">
        <ele>1636.8</ele>
        <time>2013-11-28T09:43:23Z</time>
      </trkpt>
      <trkpt lat="45.90177" lon="6.47606">
        <ele>1639.8</ele>
        <time>2013-11-28T09:43:38Z</time>
      </trkpt>
      <trkpt lat="45.90173" lon="6.47618">
        <ele>1643.6</ele>
        <time>2013-11-28T09:44:44Z</time>
      </trkpt>
      <trkpt lat="45.90154" lon="6.47615">
        <ele>1647.6</ele>
        <time>2013-11-28T09:45:11Z</time>
      </trkpt>
      <trkpt lat="45.90145" lon="6.47613">
        <ele>1649.5</ele>
        <time>2013-11-28T09:45:23Z</time>
      </trkpt>
      <trkpt lat="45.90136" lon="6.47612">
        <ele>1652.5</ele>
        <time>2013-11-28T09:45:36Z</time>
      </trkpt>
      <trkpt lat="45.90138" lon="6.47625">
        <ele>1654.5</ele>
        <time>2013-11-28T09:45:55Z</time>
      </trkpt>
      <trkpt lat="45.90143" lon="6.4765">
        <ele>1661.2</ele>
        <time>2013-11-28T09:46:23Z</time>
      </trkpt>
      <trkpt lat="45.90146" lon="6.47663">
        <ele>1664.3</ele>
        <time>2013-11-28T09:46:38Z</time>
      </trkpt>
      <trkpt lat="45.90146" lon="6.47676">
        <ele>1668.7</ele>
        <time>2013-11-28T09:46:53Z</time>
      </trkpt>
      <trkpt lat="45.90138" lon="6.47682">
        <ele>1672.1</ele>
        <time>2013-11-28T09:47:06Z</time>
      </trkpt>
      <trkpt lat="45.90119" lon="6.47678">
        <ele>1678.5</ele>
        <time>2013-11-28T09:47:34Z</time>
      </trkpt>
      <trkpt lat="45.9011" lon="6.47676">
        <ele>1681.1</ele>
        <time>2013-11-28T09:47:47Z</time>
      </trkpt>
      <trkpt lat="45.90101" lon="6.47674">
        <ele>1682.6</ele>
        <time>2013-11-28T09:48:00Z</time>
      </trkpt>
      <trkpt lat="45.90092" lon="6.4767">
        <ele>1686.5</ele>
        <time>2013-11-28T09:48:15Z</time>
      </trkpt>
      <trkpt lat="45.90088" lon="6.47695">
        <ele>1693.7</ele>
        <time>2013-11-28T09:49:12Z</time>
      </trkpt>
      <trkpt lat="45.90079" lon="6.47695">
        <ele>1698</ele>
        <time>2013-11-28T09:49:31Z</time>
      </trkpt>
      <trkpt lat="45.90062" lon="6.47685">
        <ele>1704.3</ele>
        <time>2013-11-28T09:50:00Z</time>
      </trkpt>
      <trkpt lat="45.90054" lon="6.47678">
        <ele>1707.6</ele>
        <time>2013-11-28T09:50:14Z</time>
      </trkpt>
      <trkpt lat="45.90046" lon="6.47671">
        <ele>1710.8</ele>
        <time>2013-11-28T09:50:28Z</time>
      </trkpt>
      <trkpt lat="45.90037" lon="6.47668">
        <ele>1713.8</ele>
        <time>2013-11-28T09:50:43Z</time>
      </trkpt>
      <trkpt lat="45.90024" lon="6.47681">
        <ele>1721.5</ele>
        <time>2013-11-28T09:51:24Z</time>
      </trkpt>
      <trkpt lat="45.90021" lon="6.47694">
        <ele>1725.7</ele>
        <time>2013-11-28T09:51:51Z</time>
      </trkpt>
      <trkpt lat="45.90016" lon="6.47714">
        <ele>1732.9</ele>
        <time>2013-11-28T09:52:28Z</time>
      </trkpt>
      <trkpt lat="45.90008" lon="6.47709">
        <ele>1736.3</ele>
        <time>2013-11-28T09:52:42Z</time>
      </trkpt>
      <trkpt lat="45.90006" lon="6.47722">
        <ele>1738.5</ele>
        <time>2013-11-28T09:53:06Z</time>
      </trkpt>
      <trkpt lat="45.90008" lon="6.47749">
        <ele>1745.7</ele>
        <time>2013-11-28T09:53:35Z</time>
      </trkpt>
      <trkpt lat="45.89999" lon="6.47752">
        <ele>1750</ele>
        <time>2013-11-28T09:53:53Z</time>
      </trkpt>
      <trkpt lat="45.89991" lon="6.47745">
        <ele>1753</ele>
        <time>2013-11-28T09:54:07Z</time>
      </trkpt>
      <trkpt lat="45.89976" lon="6.47732">
        <ele>1757</ele>
        <time>2013-11-28T09:54:36Z</time>
      </trkpt>
      <trkpt lat="45.89978" lon="6.47745">
        <ele>1761.4</ele>
        <time>2013-11-28T09:55:10Z</time>
      </trkpt>
      <trkpt lat="45.89975" lon="6.4777">
        <ele>1767.3</ele>
        <time>2013-11-28T09:55:38Z</time>
      </trkpt>
      <trkpt lat="45.89966" lon="6.47772">
        <ele>1771.9</ele>
        <time>2013-11-28T09:55:59Z</time>
      </trkpt>
      <trkpt lat="45.89957" lon="6.47768">
        <ele>1774</ele>
        <time>2013-11-28T09:56:10Z</time>
      </trkpt>
      <trkpt lat="45.89949" lon="6.47762">
        <ele>1777.2</ele>
        <time>2013-11-28T09:56:22Z</time>
      </trkpt>
      <trkpt lat="45.89943" lon="6.47737">
        <ele>1782.8</ele>
        <time>2013-11-28T09:56:50Z</time>
      </trkpt>
      <trkpt lat="45.8994" lon="6.47724">
        <ele>1785.1</ele>
        <time>2013-11-28T09:57:03Z</time>
      </trkpt>
      <trkpt lat="45.89935" lon="6.47712">
        <ele>1787.1</ele>
        <time>2013-11-28T09:57:15Z</time>
      </trkpt>
      <trkpt lat="45.89932" lon="6.47699">
        <ele>1790.3</ele>
        <time>2013-11-28T09:57:39Z</time>
      </trkpt>
      <trkpt lat="45.89925" lon="6.47673">
        <ele>1793.7</ele>
        <time>2013-11-28T09:58:05Z</time>
      </trkpt>
      <trkpt lat="45.89919" lon="6.47663">
        <ele>1795.7</ele>
        <time>2013-11-28T09:58:16Z</time>
      </trkpt>
      <trkpt lat="45.89912" lon="6.47654">
        <ele>1797.9</ele>
        <time>2013-11-28T09:58:27Z</time>
      </trkpt>
      <trkpt lat="45.89903" lon="6.47648">
        <ele>1797.8</ele>
        <time>2013-11-28T09:59:27Z</time>
      </trkpt>
      <trkpt lat="45.89884" lon="6.47651">
        <ele>1804.3</ele>
        <time>2013-11-28T10:00:11Z</time>
      </trkpt>
      <trkpt lat="45.89882" lon="6.47664">
        <ele>1807.1</ele>
        <time>2013-11-28T10:00:32Z</time>
      </trkpt>
      <trkpt lat="45.89865" lon="6.47671">
        <ele>1813.7</ele>
        <time>2013-11-28T10:01:02Z</time>
      </trkpt>
      <trkpt lat="45.89856" lon="6.4767">
        <ele>1816.5</ele>
        <time>2013-11-28T10:01:16Z</time>
      </trkpt>
      <trkpt lat="45.89855" lon="6.47684">
        <ele>1818.9</ele>
        <time>2013-11-28T10:01:32Z</time>
      </trkpt>
      <trkpt lat="45.89858" lon="6.47696">
        <ele>1822.2</ele>
        <time>2013-11-28T10:01:49Z</time>
      </trkpt>
      <trkpt lat="45.89857" lon="6.47717">
        <ele>1830.3</ele>
        <time>2013-11-28T10:02:27Z</time>
      </trkpt>
      <trkpt lat="45.89848" lon="6.47723">
        <ele>1834.5</ele>
        <time>2013-11-28T10:02:44Z</time>
      </trkpt>
      <trkpt lat="45.89839" lon="6.47725">
        <ele>1838.3</ele>
        <time>2013-11-28T10:03:01Z</time>
      </trkpt>
      <trkpt lat="45.89822" lon="6.47734">
        <ele>1844.1</ele>
        <time>2013-11-28T10:03:32Z</time>
      </trkpt>
      <trkpt lat="45.89815" lon="6.47742">
        <ele>1847.1</ele>
        <time>2013-11-28T10:03:48Z</time>
      </trkpt>
      <trkpt lat="45.89809" lon="6.47752">
        <ele>1849.3</ele>
        <time>2013-11-28T10:04:05Z</time>
      </trkpt>
      <trkpt lat="45.89797" lon="6.47772">
        <ele>1857.2</ele>
        <time>2013-11-28T10:04:39Z</time>
      </trkpt>
      <trkpt lat="45.89805" lon="6.47778">
        <ele>1859.8</ele>
        <time>2013-11-28T10:05:02Z</time>
      </trkpt>
      <trkpt lat="45.89812" lon="6.47788">
        <ele>1863.5</ele>
        <time>2013-11-28T10:05:16Z</time>
      </trkpt>
      <trkpt lat="45.89827" lon="6.47803">
        <ele>1868.4</ele>
        <time>2013-11-28T10:05:43Z</time>
      </trkpt>
      <trkpt lat="45.89835" lon="6.47808">
        <ele>1871.1</ele>
        <time>2013-11-28T10:05:56Z</time>
      </trkpt>
      <trkpt lat="45.89829" lon="6.47817">
        <ele>1875</ele>
        <time>2013-11-28T10:06:18Z</time>
      </trkpt>
      <trkpt lat="45.89813" lon="6.47831">
        <ele>1880.5</ele>
        <time>2013-11-28T10:06:46Z</time>
      </trkpt>
      <trkpt lat="45.89805" lon="6.47837">
        <ele>1884.1</ele>
        <time>2013-11-28T10:07:00Z</time>
      </trkpt>
      <trkpt lat="45.89796" lon="6.47842">
        <ele>1887.4</ele>
        <time>2013-11-28T10:07:37Z</time>
      </trkpt>
      <trkpt lat="45.89779" lon="6.47846">
        <ele>1888.6</ele>
        <time>2013-11-28T10:07:58Z</time>
      </trkpt>
      <trkpt lat="45.89769" lon="6.47844">
        <ele>1889.7</ele>
        <time>2013-11-28T10:08:10Z</time>
      </trkpt>
      <trkpt lat="45.8976" lon="6.47845">
        <ele>1891.8</ele>
        <time>2013-11-28T10:08:24Z</time>
      </trkpt>
      <trkpt lat="45.89751" lon="6.47843">
        <ele>1893.6</ele>
        <time>2013-11-28T10:08:38Z</time>
      </trkpt>
      <trkpt lat="45.89733" lon="6.47837">
        <ele>1899.4</ele>
        <time>2013-11-28T10:09:08Z</time>
      </trkpt>
      <trkpt lat="45.89728" lon="6.47848">
        <ele>1903.4</ele>
        <time>2013-11-28T10:09:33Z</time>
      </trkpt>
      <trkpt lat="45.89719" lon="6.47851">
        <ele>1909</ele>
        <time>2013-11-28T10:09:56Z</time>
      </trkpt>
      <trkpt lat="45.8972" lon="6.47877">
        <ele>1916.9</ele>
        <time>2013-11-28T10:10:47Z</time>
      </trkpt>
      <trkpt lat="45.8972" lon="6.47891">
        <ele>1918.9</ele>
        <time>2013-11-28T10:11:01Z</time>
      </trkpt>
      <trkpt lat="45.89718" lon="6.47918">
        <ele>1924.2</ele>
        <time>2013-11-28T10:11:26Z</time>
      </trkpt>
      <trkpt lat="45.89717" lon="6.47932">
        <ele>1926</ele>
        <time>2013-11-28T10:11:39Z</time>
      </trkpt>
      <trkpt lat="45.89716" lon="6.47945">
        <ele>1927.6</ele>
        <time>2013-11-28T10:11:49Z</time>
      </trkpt>
      <trkpt lat="45.89715" lon="6.47959">
        <ele>1929</ele>
        <time>2013-11-28T10:12:01Z</time>
      </trkpt>
      <trkpt lat="45.89715" lon="6.47972">
        <ele>1930.6</ele>
        <time>2013-11-28T10:12:12Z</time>
      </trkpt>
      <trkpt lat="45.89714" lon="6.47999">
        <ele>1933.9</ele>
        <time>2013-11-28T10:12:37Z</time>
      </trkpt>
      <trkpt lat="45.89712" lon="6.48012">
        <ele>1937.4</ele>
        <time>2013-11-28T10:12:50Z</time>
      </trkpt>
      <trkpt lat="45.89708" lon="6.48025">
        <ele>1940.9</ele>
        <time>2013-11-28T10:13:04Z</time>
      </trkpt>
      <trkpt lat="45.89701" lon="6.48033">
        <ele>1942.1</ele>
        <time>2013-11-28T10:13:17Z</time>
      </trkpt>
      <trkpt lat="45.89718" lon="6.48043">
        <ele>1949</ele>
        <time>2013-11-28T10:13:53Z</time>
      </trkpt>
      <trkpt lat="45.89727" lon="6.48044">
        <ele>1952.7</ele>
        <time>2013-11-28T10:14:07Z</time>
      </trkpt>
      <trkpt lat="45.89736" lon="6.48046">
        <ele>1956.1</ele>
        <time>2013-11-28T10:14:24Z</time>
      </trkpt>
      <trkpt lat="45.89721" lon="6.48079">
        <ele>1964.1</ele>
        <time>2013-11-28T10:16:26Z</time>
      </trkpt>
      <trkpt lat="45.8972" lon="6.48091">
        <ele>1969.1</ele>
        <time>2013-11-28T10:16:53Z</time>
      </trkpt>
      <trkpt lat="45.89729" lon="6.48091">
        <ele>1969.5</ele>
        <time>2013-11-28T10:17:10Z</time>
      </trkpt>
      <trkpt lat="45.89747" lon="6.48087">
        <ele>1975.1</ele>
        <time>2013-11-28T10:18:11Z</time>
      </trkpt>
      <trkpt lat="45.89738" lon="6.4811">
        <ele>1981</ele>
        <time>2013-11-28T10:18:45Z</time>
      </trkpt>
      <trkpt lat="45.89737" lon="6.48123">
        <ele>1987.1</ele>
        <time>2013-11-28T10:19:24Z</time>
      </trkpt>
      <trkpt lat="45.89723" lon="6.48142">
        <ele>1991.1</ele>
        <time>2013-11-28T10:19:53Z</time>
      </trkpt>
      <trkpt lat="45.8973" lon="6.48152">
        <ele>1994.5</ele>
        <time>2013-11-28T10:20:17Z</time>
      </trkpt>
      <trkpt lat="45.89739" lon="6.48152">
        <ele>1997.6</ele>
        <time>2013-11-28T10:20:30Z</time>
      </trkpt>
      <trkpt lat="45.89745" lon="6.48162">
        <ele>2003.4</ele>
        <time>2013-11-28T10:21:06Z</time>
      </trkpt>
      <trkpt lat="45.89752" lon="6.48171">
        <ele>2008.5</ele>
        <time>2013-11-28T10:21:37Z</time>
      </trkpt>
      <trkpt lat="45.89758" lon="6.48193">
        <ele>2015.3</ele>
        <time>2013-11-28T10:22:11Z</time>
      </trkpt>
      <trkpt lat="45.89762" lon="6.48205">
        <ele>2019</ele>
        <time>2013-11-28T10:22:26Z</time>
      </trkpt>
      <trkpt lat="45.89766" lon="6.48217">
        <ele>2021.1</ele>
        <time>2013-11-28T10:22:40Z</time>
      </trkpt>
      <trkpt lat="45.89776" lon="6.48237">
        <ele>2027.3</ele>
        <time>2013-11-28T10:23:08Z</time>
      </trkpt>
      <trkpt lat="45.8977" lon="6.48248">
        <ele>2029.6</ele>
        <time>2013-11-28T10:23:22Z</time>
      </trkpt>
      <trkpt lat="45.89775" lon="6.48259">
        <ele>2032.1</ele>
        <time>2013-11-28T10:23:41Z</time>
      </trkpt>
      <trkpt lat="45.89778" lon="6.48281">
        <ele>2039.6</ele>
        <time>2013-11-28T10:24:13Z</time>
      </trkpt>
      <trkpt lat="45.89773" lon="6.48293">
        <ele>2042.8</ele>
        <time>2013-11-28T10:24:26Z</time>
      </trkpt>
      <trkpt lat="45.89768" lon="6.48305">
        <ele>2044</ele>
        <time>2013-11-28T10:24:39Z</time>
      </trkpt>
      <trkpt lat="45.89765" lon="6.48317">
        <ele>2046.3</ele>
        <time>2013-11-28T10:24:51Z</time>
      </trkpt>
      <trkpt lat="45.89756" lon="6.48341">
        <ele>2048.7</ele>
        <time>2013-11-28T10:25:15Z</time>
      </trkpt>
      <trkpt lat="45.8975" lon="6.48352">
        <ele>2050.8</ele>
        <time>2013-11-28T10:25:26Z</time>
      </trkpt>
      <trkpt lat="45.89745" lon="6.48364">
        <ele>2053.4</ele>
        <time>2013-11-28T10:25:39Z</time>
      </trkpt>
      <trkpt lat="45.8974" lon="6.48375">
        <ele>2056.9</ele>
        <time>2013-11-28T10:25:52Z</time>
      </trkpt>
      <trkpt lat="45.89732" lon="6.48399">
        <ele>2061.3</ele>
        <time>2013-11-28T10:27:03Z</time>
      </trkpt>
      <trkpt lat="45.89722" lon="6.48421">
        <ele>2067.5</ele>
        <time>2013-11-28T10:27:29Z</time>
      </trkpt>
      <trkpt lat="45.8972" lon="6.48435">
        <ele>2071.4</ele>
        <time>2013-11-28T10:27:43Z</time>
      </trkpt>
      <trkpt lat="45.89716" lon="6.48447">
        <ele>2075.5</ele>
        <time>2013-11-28T10:28:00Z</time>
      </trkpt>
      <trkpt lat="45.89708" lon="6.48453">
        <ele>2077.4</ele>
        <time>2013-11-28T10:28:15Z</time>
      </trkpt>
      <trkpt lat="45.89691" lon="6.48463">
        <ele>2084</ele>
        <time>2013-11-28T10:28:44Z</time>
      </trkpt>
      <trkpt lat="45.89689" lon="6.48476">
        <ele>2089.1</ele>
        <time>2013-11-28T10:29:08Z</time>
      </trkpt>
      <trkpt lat="45.89696" lon="6.48484">
        <ele>2091.7</ele>
        <time>2013-11-28T10:29:23Z</time>
      </trkpt>
      <trkpt lat="45.897" lon="6.48505">
        <ele>2099.2</ele>
        <time>2013-11-28T10:30:02Z</time>
      </trkpt>
      <trkpt lat="45.89706" lon="6.48515">
        <ele>2101</ele>
        <time>2013-11-28T10:30:17Z</time>
      </trkpt>
      <trkpt lat="45.89714" lon="6.48524">
        <ele>2105</ele>
        <time>2013-11-28T10:30:31Z</time>
      </trkpt>
      <trkpt lat="45.89729" lon="6.48541">
        <ele>2109</ele>
        <time>2013-11-28T10:30:59Z</time>
      </trkpt>
      <trkpt lat="45.89735" lon="6.48552">
        <ele>2111.1</ele>
        <time>2013-11-28T10:31:12Z</time>
      </trkpt>
      <trkpt lat="45.89739" lon="6.48564">
        <ele>2112.5</ele>
        <time>2013-11-28T10:31:23Z</time>
      </trkpt>
      <trkpt lat="45.89743" lon="6.48575">
        <ele>2114</ele>
        <time>2013-11-28T10:31:38Z</time>
      </trkpt>
      <trkpt lat="45.89748" lon="6.48614">
        <ele>2117.2</ele>
        <time>2013-11-28T10:42:27Z</time>
      </trkpt>
      <trkpt lat="45.89748" lon="6.48641">
        <ele>2120.2</ele>
        <time>2013-11-28T10:42:48Z</time>
      </trkpt>
      <trkpt lat="45.8975" lon="6.48655">
        <ele>2121.3</ele>
        <time>2013-11-28T10:42:58Z</time>
      </trkpt>
      <trkpt lat="45.89753" lon="6.48667">
        <ele>2122.9</ele>
        <time>2013-11-28T10:43:09Z</time>
      </trkpt>
      <trkpt lat="45.89756" lon="6.4868">
        <ele>2124.2</ele>
        <time>2013-11-28T10:43:19Z</time>
      </trkpt>
      <trkpt lat="45.89759" lon="6.48693">
        <ele>2125.9</ele>
        <time>2013-11-28T10:43:30Z</time>
      </trkpt>
      <trkpt lat="45.89764" lon="6.48719">
        <ele>2128.9</ele>
        <time>2013-11-28T10:43:52Z</time>
      </trkpt>
      <trkpt lat="45.89765" lon="6.48732">
        <ele>2130.4</ele>
        <time>2013-11-28T10:44:03Z</time>
      </trkpt>
      <trkpt lat="45.89766" lon="6.48745">
        <ele>2131.9</ele>
        <time>2013-11-28T10:44:14Z</time>
      </trkpt>
      <trkpt lat="45.89768" lon="6.4876">
        <ele>2133</ele>
        <time>2013-11-28T10:44:25Z</time>
      </trkpt>
      <trkpt lat="45.89769" lon="6.48773">
        <ele>2135.3</ele>
        <time>2013-11-28T10:44:35Z</time>
      </trkpt>
      <trkpt lat="45.89768" lon="6.48799">
        <ele>2137.1</ele>
        <time>2013-11-28T10:44:56Z</time>
      </trkpt>
      <trkpt lat="45.89768" lon="6.48812">
        <ele>2137.6</ele>
        <time>2013-11-28T10:45:06Z</time>
      </trkpt>
      <trkpt lat="45.8977" lon="6.48826">
        <ele>2137.6</ele>
        <time>2013-11-28T10:45:16Z</time>
      </trkpt>
      <trkpt lat="45.89771" lon="6.48839">
        <ele>2139.1</ele>
        <time>2013-11-28T10:45:26Z</time>
      </trkpt>
      <trkpt lat="45.89773" lon="6.48852">
        <ele>2140.1</ele>
        <time>2013-11-28T10:45:36Z</time>
      </trkpt>
      <trkpt lat="45.89779" lon="6.48879">
        <ele>2142.7</ele>
        <time>2013-11-28T10:46:00Z</time>
      </trkpt>
      <trkpt lat="45.89784" lon="6.4889">
        <ele>2144.9</ele>
        <time>2013-11-28T10:46:14Z</time>
      </trkpt>
      <trkpt lat="45.89784" lon="6.48903">
        <ele>2148.2</ele>
        <time>2013-11-28T10:46:34Z</time>
      </trkpt>
      <trkpt lat="45.89778" lon="6.48913">
        <ele>2152.6</ele>
        <time>2013-11-28T10:46:57Z</time>
      </trkpt>
      <trkpt lat="45.89783" lon="6.48939">
        <ele>2160.1</ele>
        <time>2013-11-28T10:47:28Z</time>
      </trkpt>
      <trkpt lat="45.89788" lon="6.4895">
        <ele>2163.1</ele>
        <time>2013-11-28T10:47:43Z</time>
      </trkpt>
      <trkpt lat="45.89793" lon="6.48962">
        <ele>2165.3</ele>
        <time>2013-11-28T10:47:59Z</time>
      </trkpt>
      <trkpt lat="45.89802" lon="6.48986">
        <ele>2171.4</ele>
        <time>2013-11-28T10:48:32Z</time>
      </trkpt>
      <trkpt lat="45.89793" lon="6.48992">
        <ele>2175.5</ele>
        <time>2013-11-28T10:48:56Z</time>
      </trkpt>
      <trkpt lat="45.89785" lon="6.48997">
        <ele>2177.7</ele>
        <time>2013-11-28T10:49:11Z</time>
      </trkpt>
      <trkpt lat="45.89767" lon="6.49007">
        <ele>2183.4</ele>
        <time>2013-11-28T10:49:40Z</time>
      </trkpt>
      <trkpt lat="45.89759" lon="6.4901">
        <ele>2186.3</ele>
        <time>2013-11-28T10:49:54Z</time>
      </trkpt>
      <trkpt lat="45.89752" lon="6.4902">
        <ele>2187.2</ele>
        <time>2013-11-28T10:50:10Z</time>
      </trkpt>
      <trkpt lat="45.89752" lon="6.49033">
        <ele>2189.7</ele>
        <time>2013-11-28T10:50:37Z</time>
      </trkpt>
      <trkpt lat="45.89749" lon="6.4906">
        <ele>2191.7</ele>
        <time>2013-11-28T10:51:02Z</time>
      </trkpt>
      <trkpt lat="45.89748" lon="6.49074">
        <ele>2190.1</ele>
        <time>2013-11-28T10:51:15Z</time>
      </trkpt>
      <trkpt lat="45.89747" lon="6.49088">
        <ele>2189.4</ele>
        <time>2013-11-28T10:51:31Z</time>
      </trkpt>
      <trkpt lat="45.89749" lon="6.49102">
        <ele>2190.6</ele>
        <time>2013-11-28T10:51:43Z</time>
      </trkpt>
      <trkpt lat="45.89756" lon="6.49127">
        <ele>2195.7</ele>
        <time>2013-11-28T10:52:09Z</time>
      </trkpt>
      <trkpt lat="45.89759" lon="6.4914">
        <ele>2196.6</ele>
        <time>2013-11-28T10:52:22Z</time>
      </trkpt>
      <trkpt lat="45.8976" lon="6.49153">
        <ele>2200.2</ele>
        <time>2013-11-28T10:52:36Z</time>
      </trkpt>
      <trkpt lat="45.89761" lon="6.49166">
        <ele>2202.3</ele>
        <time>2013-11-28T10:52:50Z</time>
      </trkpt>
      <trkpt lat="45.89761" lon="6.49193">
        <ele>2207.4</ele>
        <time>2013-11-28T10:53:18Z</time>
      </trkpt>
      <trkpt lat="45.8976" lon="6.49207">
        <ele>2209.1</ele>
        <time>2013-11-28T10:53:32Z</time>
      </trkpt>
      <trkpt lat="45.89759" lon="6.4922">
        <ele>2211.8</ele>
        <time>2013-11-28T10:53:46Z</time>
      </trkpt>
      <trkpt lat="45.89757" lon="6.49232">
        <ele>2215.9</ele>
        <time>2013-11-28T10:54:04Z</time>
      </trkpt>
      <trkpt lat="45.89745" lon="6.49251">
        <ele>2221.3</ele>
        <time>2013-11-28T10:54:33Z</time>
      </trkpt>
      <trkpt lat="45.89741" lon="6.49262">
        <ele>2226.3</ele>
        <time>2013-11-28T10:54:52Z</time>
      </trkpt>
      <trkpt lat="45.8974" lon="6.49276">
        <ele>2229.5</ele>
        <time>2013-11-28T10:55:10Z</time>
      </trkpt>
      <trkpt lat="45.89733" lon="6.493">
        <ele>2238.4</ele>
        <time>2013-11-28T10:55:48Z</time>
      </trkpt>
      <trkpt lat="45.89731" lon="6.49313">
        <ele>2241.2</ele>
        <time>2013-11-28T10:56:05Z</time>
      </trkpt>
      <trkpt lat="45.89731" lon="6.49326">
        <ele>2244.7</ele>
        <time>2013-11-28T10:56:21Z</time>
      </trkpt>
      <trkpt lat="45.89715" lon="6.49339">
        <ele>2252.9</ele>
        <time>2013-11-28T10:57:04Z</time>
      </trkpt>
      <trkpt lat="45.89707" lon="6.49344">
        <ele>2256.1</ele>
        <time>2013-11-28T10:57:22Z</time>
      </trkpt>
      <trkpt lat="45.89704" lon="6.49369">
        <ele>2263.4</ele>
        <time>2013-11-28T10:58:07Z</time>
      </trkpt>
      <trkpt lat="45.89696" lon="6.49376">
        <ele>2265.8</ele>
        <time>2013-11-28T10:58:23Z</time>
      </trkpt>
      <trkpt lat="45.89692" lon="6.49393">
        <ele>2272</ele>
        <time>2013-11-28T10:58:54Z</time>
      </trkpt>
      <trkpt lat="45.89688" lon="6.49405">
        <ele>2275.6</ele>
        <time>2013-11-28T10:59:13Z</time>
      </trkpt>
      <trkpt lat="45.89686" lon="6.49417">
        <ele>2280</ele>
        <time>2013-11-28T10:59:33Z</time>
      </trkpt>
      <trkpt lat="45.89684" lon="6.49443">
        <ele>2290.6</ele>
        <time>2013-11-28T11:00:40Z</time>
      </trkpt>
      <trkpt lat="45.89696" lon="6.49463">
        <ele>2295.6</ele>
        <time>2013-11-28T11:01:14Z</time>
      </trkpt>
      <trkpt lat="45.89703" lon="6.49472">
        <ele>2299.3</ele>
        <time>2013-11-28T11:01:31Z</time>
      </trkpt>
      <trkpt lat="45.89708" lon="6.49483">
        <ele>2303.5</ele>
        <time>2013-11-28T11:01:48Z</time>
      </trkpt>
      <trkpt lat="45.89716" lon="6.49507">
        <ele>2308.6</ele>
        <time>2013-11-28T11:02:24Z</time>
      </trkpt>
      <trkpt lat="45.8972" lon="6.49518">
        <ele>2311.9</ele>
        <time>2013-11-28T11:02:46Z</time>
      </trkpt>
      <trkpt lat="45.89724" lon="6.4953">
        <ele>2313</ele>
        <time>2013-11-28T11:03:05Z</time>
      </trkpt>
      <trkpt lat="45.89731" lon="6.49554">
        <ele>2318.6</ele>
        <time>2013-11-28T11:03:51Z</time>
      </trkpt>
      <trkpt lat="45.8973" lon="6.49567">
        <ele>2321.5</ele>
        <time>2013-11-28T11:04:26Z</time>
      </trkpt>
      <trkpt lat="45.89734" lon="6.49608">
        <ele>2320.7</ele>
        <time>2013-11-28T11:05:59Z</time>
      </trkpt>
      <trkpt lat="45.89735" lon="6.49621">
        <ele>2324.8</ele>
        <time>2013-11-28T11:06:15Z</time>
      </trkpt>
      <trkpt lat="45.89733" lon="6.49634">
        <ele>2328.6</ele>
        <time>2013-11-28T11:06:32Z</time>
      </trkpt>
      <trkpt lat="45.89728" lon="6.49645">
        <ele>2332.2</ele>
        <time>2013-11-28T11:06:48Z</time>
      </trkpt>
      <trkpt lat="45.89715" lon="6.49664">
        <ele>2336.6</ele>
        <time>2013-11-28T11:07:15Z</time>
      </trkpt>
      <trkpt lat="45.89708" lon="6.49673">
        <ele>2338.5</ele>
        <time>2013-11-28T11:07:29Z</time>
      </trkpt>
      <trkpt lat="45.89702" lon="6.49683">
        <ele>2341.8</ele>
        <time>2013-11-28T11:07:45Z</time>
      </trkpt>
      <trkpt lat="45.89699" lon="6.49695">
        <ele>2345.7</ele>
        <time>2013-11-28T11:08:02Z</time>
      </trkpt>
      <trkpt lat="45.89691" lon="6.4972">
        <ele>2351.5</ele>
        <time>2013-11-28T11:08:30Z</time>
      </trkpt>
      <trkpt lat="45.89687" lon="6.49731">
        <ele>2352.5</ele>
        <time>2013-11-28T11:08:43Z</time>
      </trkpt>
      <trkpt lat="45.89683" lon="6.49744">
        <ele>2355.2</ele>
        <time>2013-11-28T11:09:00Z</time>
      </trkpt>
      <trkpt lat="45.89678" lon="6.49756">
        <ele>2356.4</ele>
        <time>2013-11-28T11:09:14Z</time>
      </trkpt>
      <trkpt lat="45.89664" lon="6.49772">
        <ele>2362.9</ele>
        <time>2013-11-28T11:09:45Z</time>
      </trkpt>
      <trkpt lat="45.8966" lon="6.49785">
        <ele>2365.5</ele>
        <time>2013-11-28T11:09:59Z</time>
      </trkpt>
      <trkpt lat="45.89656" lon="6.49797">
        <ele>2368.6</ele>
        <time>2013-11-28T11:10:13Z</time>
      </trkpt>
      <trkpt lat="45.89652" lon="6.4981">
        <ele>2369.8</ele>
        <time>2013-11-28T11:10:27Z</time>
      </trkpt>
      <trkpt lat="45.89645" lon="6.49834">
        <ele>2374</ele>
        <time>2013-11-28T11:10:55Z</time>
      </trkpt>
      <trkpt lat="45.89643" lon="6.49847">
        <ele>2376.8</ele>
        <time>2013-11-28T11:11:11Z</time>
      </trkpt>
      <trkpt lat="45.89637" lon="6.49858">
        <ele>2380</ele>
        <time>2013-11-28T11:11:26Z</time>
      </trkpt>
      <trkpt lat="45.89635" lon="6.49871">
        <ele>2382.2</ele>
        <time>2013-11-28T11:11:43Z</time>
      </trkpt>
      <trkpt lat="45.89642" lon="6.49893">
        <ele>2390.3</ele>
        <time>2013-11-28T11:12:19Z</time>
      </trkpt>
      <trkpt lat="45.89637" lon="6.49904">
        <ele>2393</ele>
        <time>2013-11-28T11:12:34Z</time>
      </trkpt>
      <trkpt lat="45.89631" lon="6.49915">
        <ele>2396</ele>
        <time>2013-11-28T11:12:50Z</time>
      </trkpt>
      <trkpt lat="45.89623" lon="6.49939">
        <ele>2403.6</ele>
        <time>2013-11-28T11:13:27Z</time>
      </trkpt>
      <trkpt lat="45.89628" lon="6.4995">
        <ele>2406.5</ele>
        <time>2013-11-28T11:13:44Z</time>
      </trkpt>
      <trkpt lat="45.89635" lon="6.4996">
        <ele>2410</ele>
        <time>2013-11-28T11:14:02Z</time>
      </trkpt>
      <trkpt lat="45.89635" lon="6.49979">
        <ele>2417.5</ele>
        <time>2013-11-28T11:14:43Z</time>
      </trkpt>
      <trkpt lat="45.89629" lon="6.49989">
        <ele>2421.1</ele>
        <time>2013-11-28T11:14:59Z</time>
      </trkpt>
      <trkpt lat="45.89622" lon="6.49998">
        <ele>2423.9</ele>
        <time>2013-11-28T11:15:40Z</time>
      </trkpt>
      <trkpt lat="45.89625" lon="6.50024">
        <ele>2431</ele>
        <time>2013-11-28T11:16:17Z</time>
      </trkpt>
      <trkpt lat="45.89621" lon="6.50036">
        <ele>2434.4</ele>
        <time>2013-11-28T11:16:36Z</time>
      </trkpt>
      <trkpt lat="45.89612" lon="6.5004">
        <ele>2438.9</ele>
        <time>2013-11-28T11:16:52Z</time>
      </trkpt>
      <trkpt lat="45.89594" lon="6.50039">
        <ele>2442.9</ele>
        <time>2013-11-28T11:17:24Z</time>
      </trkpt>
      <trkpt lat="45.89585" lon="6.50035">
        <ele>2447.4</ele>
        <time>2013-11-28T11:17:40Z</time>
      </trkpt>
      <trkpt lat="45.89577" lon="6.50027">
        <ele>2450</ele>
        <time>2013-11-28T11:17:56Z</time>
      </trkpt>
      <trkpt lat="45.89562" lon="6.50015">
        <ele>2455.9</ele>
        <time>2013-11-28T11:18:59Z</time>
      </trkpt>
      <trkpt lat="45.89552" lon="6.50038">
        <ele>2463.8</ele>
        <time>2013-11-28T11:19:55Z</time>
      </trkpt>
      <trkpt lat="45.89551" lon="6.50051">
        <ele>2468.5</ele>
        <time>2013-11-28T11:20:10Z</time>
      </trkpt>
      <trkpt lat="45.89557" lon="6.50076">
        <ele>2472.9</ele>
        <time>2013-11-28T11:20:37Z</time>
      </trkpt>
      <trkpt lat="45.89563" lon="6.50086">
        <ele>2475.1</ele>
        <time>2013-11-28T11:20:49Z</time>
      </trkpt>
      <trkpt lat="45.89569" lon="6.50096">
        <ele>2477.4</ele>
        <time>2013-11-28T11:21:01Z</time>
      </trkpt>
      <trkpt lat="45.89577" lon="6.50104">
        <ele>2480.1</ele>
        <time>2013-11-28T11:21:14Z</time>
      </trkpt>
      <trkpt lat="45.89591" lon="6.50121">
        <ele>2484.7</ele>
        <time>2013-11-28T11:21:37Z</time>
      </trkpt>
      <trkpt lat="45.89599" lon="6.50129">
        <ele>2485.6</ele>
        <time>2013-11-28T11:21:50Z</time>
      </trkpt>
      <trkpt lat="45.89605" lon="6.50138">
        <ele>2488.2</ele>
        <time>2013-11-28T11:22:01Z</time>
      </trkpt>
      <trkpt lat="45.89613" lon="6.50146">
        <ele>2489.9</ele>
        <time>2013-11-28T11:22:12Z</time>
      </trkpt>
      <trkpt lat="45.89621" lon="6.50153">
        <ele>2492.1</ele>
        <time>2013-11-28T11:22:23Z</time>
      </trkpt>
      <trkpt lat="45.89637" lon="6.50168">
        <ele>2496.9</ele>
        <time>2013-11-28T11:22:46Z</time>
      </trkpt>
      <trkpt lat="45.89647" lon="6.50168">
        <ele>2497.5</ele>
        <time>2013-11-28T11:22:56Z</time>
      </trkpt>
      <trkpt lat="45.89656" lon="6.5017">
        <ele>2497.4</ele>
        <time>2013-11-28T11:23:17Z</time>
      </trkpt>
      <trkpt lat="45.89648" lon="6.50165">
        <ele>2497</ele>
        <time>2013-11-28T11:28:15Z</time>
      </trkpt>
      <trkpt lat="45.8965" lon="6.50155">
        <ele>2499.3</ele>
        <time>2013-11-28T11:40:48Z</time>
      </trkpt>
      <trkpt lat="45.89662" lon="6.50174">
        <ele>2498.6</ele>
        <time>2013-11-28T11:42:12Z</time>
      </trkpt>
      <trkpt lat="45.89654" lon="6.50167">
        <ele>2499.7</ele>
        <time>2013-11-28T11:52:17Z</time>
      </trkpt>
      <trkpt lat="45.89663" lon="6.50173">
        <ele>2499.7</ele>
        <time>2013-11-28T12:00:53Z</time>
      </trkpt>
      <trkpt lat="45.89635" lon="6.50168">
        <ele>2500.6</ele>
        <time>2013-11-28T12:05:11Z</time>
      </trkpt>
      <trkpt lat="45.89627" lon="6.50174">
        <ele>2497.2</ele>
        <time>2013-11-28T12:05:31Z</time>
      </trkpt>
      <trkpt lat="45.89616" lon="6.50168">
        <ele>2497</ele>
        <time>2013-11-28T12:06:18Z</time>
      </trkpt>
      <trkpt lat="45.896" lon="6.50138">
        <ele>2493.9</ele>
        <time>2013-11-28T12:06:24Z</time>
      </trkpt>
      <trkpt lat="45.89593" lon="6.50127">
        <ele>2492.1</ele>
        <time>2013-11-28T12:06:26Z</time>
      </trkpt>
      <trkpt lat="45.89581" lon="6.50121">
        <ele>2490</ele>
        <time>2013-11-28T12:06:29Z</time>
      </trkpt>
      <trkpt lat="45.89571" lon="6.50114">
        <ele>2487.8</ele>
        <time>2013-11-28T12:06:32Z</time>
      </trkpt>
      <trkpt lat="45.89561" lon="6.50104">
        <ele>2485.9</ele>
        <time>2013-11-28T12:06:35Z</time>
      </trkpt>
      <trkpt lat="45.89555" lon="6.50088">
        <ele>2483</ele>
        <time>2013-11-28T12:06:38Z</time>
      </trkpt>
      <trkpt lat="45.89552" lon="6.50071">
        <ele>2480.1</ele>
        <time>2013-11-28T12:06:41Z</time>
      </trkpt>
      <trkpt lat="45.89552" lon="6.50057">
        <ele>2474.6</ele>
        <time>2013-11-28T12:06:45Z</time>
      </trkpt>
      <trkpt lat="45.89556" lon="6.50041">
        <ele>2470.6</ele>
        <time>2013-11-28T12:06:50Z</time>
      </trkpt>
      <trkpt lat="45.89564" lon="6.50036">
        <ele>2463.7</ele>
        <time>2013-11-28T12:07:18Z</time>
      </trkpt>
      <trkpt lat="45.89575" lon="6.50036">
        <ele>2462.6</ele>
        <time>2013-11-28T12:07:29Z</time>
      </trkpt>
      <trkpt lat="45.89596" lon="6.50038">
        <ele>2453.5</ele>
        <time>2013-11-28T12:07:37Z</time>
      </trkpt>
      <trkpt lat="45.896" lon="6.50026">
        <ele>2445.9</ele>
        <time>2013-11-28T12:07:44Z</time>
      </trkpt>
      <trkpt lat="45.89601" lon="6.5001">
        <ele>2440.9</ele>
        <time>2013-11-28T12:07:58Z</time>
      </trkpt>
      <trkpt lat="45.89612" lon="6.50008">
        <ele>2438.8</ele>
        <time>2013-11-28T12:08:02Z</time>
      </trkpt>
      <trkpt lat="45.89615" lon="6.49993">
        <ele>2435.1</ele>
        <time>2013-11-28T12:08:06Z</time>
      </trkpt>
      <trkpt lat="45.89626" lon="6.49994">
        <ele>2430.9</ele>
        <time>2013-11-28T12:08:10Z</time>
      </trkpt>
      <trkpt lat="45.89638" lon="6.4999">
        <ele>2428.2</ele>
        <time>2013-11-28T12:08:13Z</time>
      </trkpt>
      <trkpt lat="45.89648" lon="6.49983">
        <ele>2426.4</ele>
        <time>2013-11-28T12:08:15Z</time>
      </trkpt>
      <trkpt lat="45.89657" lon="6.49981">
        <ele>2422.9</ele>
        <time>2013-11-28T12:08:25Z</time>
      </trkpt>
      <trkpt lat="45.89662" lon="6.4997">
        <ele>2420.7</ele>
        <time>2013-11-28T12:08:46Z</time>
      </trkpt>
      <trkpt lat="45.89658" lon="6.49943">
        <ele>2416.3</ele>
        <time>2013-11-28T12:08:53Z</time>
      </trkpt>
      <trkpt lat="45.89654" lon="6.49928">
        <ele>2413.4</ele>
        <time>2013-11-28T12:08:56Z</time>
      </trkpt>
      <trkpt lat="45.89661" lon="6.49916">
        <ele>2407.9</ele>
        <time>2013-11-28T12:08:59Z</time>
      </trkpt>
      <trkpt lat="45.89661" lon="6.49902">
        <ele>2404.3</ele>
        <time>2013-11-28T12:09:02Z</time>
      </trkpt>
      <trkpt lat="45.89656" lon="6.49888">
        <ele>2399.2</ele>
        <time>2013-11-28T12:09:05Z</time>
      </trkpt>
      <trkpt lat="45.8966" lon="6.49877">
        <ele>2396.9</ele>
        <time>2013-11-28T12:09:07Z</time>
      </trkpt>
      <trkpt lat="45.89666" lon="6.49864">
        <ele>2394</ele>
        <time>2013-11-28T12:09:09Z</time>
      </trkpt>
      <trkpt lat="45.89673" lon="6.49856">
        <ele>2392</ele>
        <time>2013-11-28T12:09:12Z</time>
      </trkpt>
      <trkpt lat="45.89684" lon="6.49849">
        <ele>2390.2</ele>
        <time>2013-11-28T12:09:16Z</time>
      </trkpt>
      <trkpt lat="45.89695" lon="6.49841">
        <ele>2388.7</ele>
        <time>2013-11-28T12:09:20Z</time>
      </trkpt>
      <trkpt lat="45.89705" lon="6.49833">
        <ele>2388.4</ele>
        <time>2013-11-28T12:09:23Z</time>
      </trkpt>
      <trkpt lat="45.89716" lon="6.49824">
        <ele>2388.3</ele>
        <time>2013-11-28T12:09:26Z</time>
      </trkpt>
      <trkpt lat="45.89726" lon="6.49816">
        <ele>2386.9</ele>
        <time>2013-11-28T12:09:29Z</time>
      </trkpt>
      <trkpt lat="45.89736" lon="6.49809">
        <ele>2385.8</ele>
        <time>2013-11-28T12:09:32Z</time>
      </trkpt>
      <trkpt lat="45.89745" lon="6.49803">
        <ele>2385.2</ele>
        <time>2013-11-28T12:09:34Z</time>
      </trkpt>
      <trkpt lat="45.89755" lon="6.49797">
        <ele>2384.1</ele>
        <time>2013-11-28T12:09:36Z</time>
      </trkpt>
      <trkpt lat="45.89764" lon="6.49791">
        <ele>2383.1</ele>
        <time>2013-11-28T12:09:38Z</time>
      </trkpt>
      <trkpt lat="45.89774" lon="6.49786">
        <ele>2382.7</ele>
        <time>2013-11-28T12:09:40Z</time>
      </trkpt>
      <trkpt lat="45.89783" lon="6.49779">
        <ele>2382.3</ele>
        <time>2013-11-28T12:09:42Z</time>
      </trkpt>
      <trkpt lat="45.89792" lon="6.49771">
        <ele>2381.3</ele>
        <time>2013-11-28T12:09:44Z</time>
      </trkpt>
      <trkpt lat="45.89801" lon="6.49765">
        <ele>2380.1</ele>
        <time>2013-11-28T12:09:46Z</time>
      </trkpt>
      <trkpt lat="45.89809" lon="6.49758">
        <ele>2378.4</ele>
        <time>2013-11-28T12:09:48Z</time>
      </trkpt>
      <trkpt lat="45.89827" lon="6.49746">
        <ele>2375.9</ele>
        <time>2013-11-28T12:09:52Z</time>
      </trkpt>
      <trkpt lat="45.89838" lon="6.49738">
        <ele>2373.7</ele>
        <time>2013-11-28T12:09:55Z</time>
      </trkpt>
      <trkpt lat="45.89848" lon="6.49729">
        <ele>2371.3</ele>
        <time>2013-11-28T12:09:58Z</time>
      </trkpt>
      <trkpt lat="45.89859" lon="6.49724">
        <ele>2369</ele>
        <time>2013-11-28T12:10:01Z</time>
      </trkpt>
      <trkpt lat="45.89872" lon="6.4972">
        <ele>2366.4</ele>
        <time>2013-11-28T12:10:04Z</time>
      </trkpt>
      <trkpt lat="45.89885" lon="6.49722">
        <ele>2362.6</ele>
        <time>2013-11-28T12:10:07Z</time>
      </trkpt>
      <trkpt lat="45.89895" lon="6.49723">
        <ele>2359.9</ele>
        <time>2013-11-28T12:10:09Z</time>
      </trkpt>
      <trkpt lat="45.89905" lon="6.49723">
        <ele>2358</ele>
        <time>2013-11-28T12:10:11Z</time>
      </trkpt>
      <trkpt lat="45.89916" lon="6.49722">
        <ele>2356.2</ele>
        <time>2013-11-28T12:10:13Z</time>
      </trkpt>
      <trkpt lat="45.89926" lon="6.49721">
        <ele>2353</ele>
        <time>2013-11-28T12:10:15Z</time>
      </trkpt>
      <trkpt lat="45.89937" lon="6.49722">
        <ele>2351.1</ele>
        <time>2013-11-28T12:10:17Z</time>
      </trkpt>
      <trkpt lat="45.89947" lon="6.49723">
        <ele>2349.7</ele>
        <time>2013-11-28T12:10:19Z</time>
      </trkpt>
      <trkpt lat="45.89959" lon="6.49725">
        <ele>2348.5</ele>
        <time>2013-11-28T12:10:21Z</time>
      </trkpt>
      <trkpt lat="45.8997" lon="6.49728">
        <ele>2347.7</ele>
        <time>2013-11-28T12:10:23Z</time>
      </trkpt>
      <trkpt lat="45.89979" lon="6.49729">
        <ele>2346</ele>
        <time>2013-11-28T12:10:25Z</time>
      </trkpt>
      <trkpt lat="45.8999" lon="6.4973">
        <ele>2344.1</ele>
        <time>2013-11-28T12:10:28Z</time>
      </trkpt>
      <trkpt lat="45.9" lon="6.49733">
        <ele>2343.7</ele>
        <time>2013-11-28T12:10:31Z</time>
      </trkpt>
      <trkpt lat="45.9001" lon="6.49739">
        <ele>2342.4</ele>
        <time>2013-11-28T12:10:40Z</time>
      </trkpt>
      <trkpt lat="45.90019" lon="6.49743">
        <ele>2341.3</ele>
        <time>2013-11-28T12:11:12Z</time>
      </trkpt>
      <trkpt lat="45.90033" lon="6.49728">
        <ele>2338.3</ele>
        <time>2013-11-28T12:11:28Z</time>
      </trkpt>
      <trkpt lat="45.90036" lon="6.49714">
        <ele>2332.7</ele>
        <time>2013-11-28T12:11:33Z</time>
      </trkpt>
      <trkpt lat="45.90038" lon="6.497">
        <ele>2328</ele>
        <time>2013-11-28T12:11:37Z</time>
      </trkpt>
      <trkpt lat="45.90041" lon="6.49687">
        <ele>2324</ele>
        <time>2013-11-28T12:11:40Z</time>
      </trkpt>
      <trkpt lat="45.90045" lon="6.49672">
        <ele>2316.7</ele>
        <time>2013-11-28T12:11:44Z</time>
      </trkpt>
      <trkpt lat="45.90053" lon="6.49661">
        <ele>2313.4</ele>
        <time>2013-11-28T12:11:47Z</time>
      </trkpt>
      <trkpt lat="45.90051" lon="6.49649">
        <ele>2311.2</ele>
        <time>2013-11-28T12:11:49Z</time>
      </trkpt>
      <trkpt lat="45.90062" lon="6.49639">
        <ele>2307.2</ele>
        <time>2013-11-28T12:11:52Z</time>
      </trkpt>
      <trkpt lat="45.90071" lon="6.49638">
        <ele>2300.2</ele>
        <time>2013-11-28T12:12:10Z</time>
      </trkpt>
      <trkpt lat="45.9008" lon="6.49634">
        <ele>2300.2</ele>
        <time>2013-11-28T12:12:24Z</time>
      </trkpt>
      <trkpt lat="45.90098" lon="6.49627">
        <ele>2298</ele>
        <time>2013-11-28T12:12:28Z</time>
      </trkpt>
      <trkpt lat="45.90103" lon="6.49612">
        <ele>2296.5</ele>
        <time>2013-11-28T12:12:31Z</time>
      </trkpt>
      <trkpt lat="45.901" lon="6.49596">
        <ele>2292.5</ele>
        <time>2013-11-28T12:12:34Z</time>
      </trkpt>
      <trkpt lat="45.9011" lon="6.49589">
        <ele>2287.9</ele>
        <time>2013-11-28T12:12:38Z</time>
      </trkpt>
      <trkpt lat="45.90116" lon="6.49576">
        <ele>2284.3</ele>
        <time>2013-11-28T12:12:41Z</time>
      </trkpt>
      <trkpt lat="45.90124" lon="6.49567">
        <ele>2280.1</ele>
        <time>2013-11-28T12:12:44Z</time>
      </trkpt>
      <trkpt lat="45.90131" lon="6.49557">
        <ele>2274.9</ele>
        <time>2013-11-28T12:12:47Z</time>
      </trkpt>
      <trkpt lat="45.90142" lon="6.49549">
        <ele>2271.7</ele>
        <time>2013-11-28T12:12:50Z</time>
      </trkpt>
      <trkpt lat="45.9015" lon="6.49538">
        <ele>2267.3</ele>
        <time>2013-11-28T12:12:53Z</time>
      </trkpt>
      <trkpt lat="45.90157" lon="6.49529">
        <ele>2265.2</ele>
        <time>2013-11-28T12:12:55Z</time>
      </trkpt>
      <trkpt lat="45.90162" lon="6.49514">
        <ele>2260.8</ele>
        <time>2013-11-28T12:12:58Z</time>
      </trkpt>
      <trkpt lat="45.90168" lon="6.49501">
        <ele>2256.1</ele>
        <time>2013-11-28T12:13:01Z</time>
      </trkpt>
      <trkpt lat="45.90177" lon="6.49489">
        <ele>2252</ele>
        <time>2013-11-28T12:13:04Z</time>
      </trkpt>
      <trkpt lat="45.90185" lon="6.49476">
        <ele>2247.4</ele>
        <time>2013-11-28T12:13:07Z</time>
      </trkpt>
      <trkpt lat="45.90195" lon="6.4947">
        <ele>2245.1</ele>
        <time>2013-11-28T12:13:09Z</time>
      </trkpt>
      <trkpt lat="45.90198" lon="6.49456">
        <ele>2241.7</ele>
        <time>2013-11-28T12:13:12Z</time>
      </trkpt>
      <trkpt lat="45.902" lon="6.49442">
        <ele>2234.5</ele>
        <time>2013-11-28T12:13:23Z</time>
      </trkpt>
      <trkpt lat="45.90202" lon="6.4943">
        <ele>2231</ele>
        <time>2013-11-28T12:13:43Z</time>
      </trkpt>
      <trkpt lat="45.90206" lon="6.49402">
        <ele>2227.2</ele>
        <time>2013-11-28T12:13:59Z</time>
      </trkpt>
      <trkpt lat="45.90212" lon="6.4939">
        <ele>2225.9</ele>
        <time>2013-11-28T12:14:03Z</time>
      </trkpt>
      <trkpt lat="45.90207" lon="6.49379">
        <ele>2222.2</ele>
        <time>2013-11-28T12:14:16Z</time>
      </trkpt>
      <trkpt lat="45.90196" lon="6.49376">
        <ele>2221.6</ele>
        <time>2013-11-28T12:14:24Z</time>
      </trkpt>
      <trkpt lat="45.90187" lon="6.49375">
        <ele>2217.8</ele>
        <time>2013-11-28T12:14:38Z</time>
      </trkpt>
      <trkpt lat="45.90191" lon="6.49363">
        <ele>2217.2</ele>
        <time>2013-11-28T12:15:18Z</time>
      </trkpt>
      <trkpt lat="45.90177" lon="6.49346">
        <ele>2212.4</ele>
        <time>2013-11-28T12:15:26Z</time>
      </trkpt>
      <trkpt lat="45.90172" lon="6.49332">
        <ele>2205.6</ele>
        <time>2013-11-28T12:15:36Z</time>
      </trkpt>
      <trkpt lat="45.90168" lon="6.49319">
        <ele>2202.6</ele>
        <time>2013-11-28T12:15:41Z</time>
      </trkpt>
      <trkpt lat="45.90169" lon="6.49305">
        <ele>2197</ele>
        <time>2013-11-28T12:15:48Z</time>
      </trkpt>
      <trkpt lat="45.90173" lon="6.49291">
        <ele>2189</ele>
        <time>2013-11-28T12:15:54Z</time>
      </trkpt>
      <trkpt lat="45.9017" lon="6.49277">
        <ele>2185.4</ele>
        <time>2013-11-28T12:15:57Z</time>
      </trkpt>
      <trkpt lat="45.90175" lon="6.49265">
        <ele>2180.8</ele>
        <time>2013-11-28T12:16:00Z</time>
      </trkpt>
      <trkpt lat="45.90182" lon="6.49255">
        <ele>2171.3</ele>
        <time>2013-11-28T12:16:37Z</time>
      </trkpt>
      <trkpt lat="45.90193" lon="6.49237">
        <ele>2164.2</ele>
        <time>2013-11-28T12:16:45Z</time>
      </trkpt>
      <trkpt lat="45.90201" lon="6.49225">
        <ele>2158.8</ele>
        <time>2013-11-28T12:16:49Z</time>
      </trkpt>
      <trkpt lat="45.90209" lon="6.49216">
        <ele>2150.2</ele>
        <time>2013-11-28T12:16:54Z</time>
      </trkpt>
      <trkpt lat="45.90217" lon="6.49206">
        <ele>2145.4</ele>
        <time>2013-11-28T12:16:57Z</time>
      </trkpt>
      <trkpt lat="45.90223" lon="6.49196">
        <ele>2140</ele>
        <time>2013-11-28T12:17:00Z</time>
      </trkpt>
      <trkpt lat="45.9023" lon="6.49186">
        <ele>2134.2</ele>
        <time>2013-11-28T12:17:03Z</time>
      </trkpt>
      <trkpt lat="45.90231" lon="6.49171">
        <ele>2129.5</ele>
        <time>2013-11-28T12:17:06Z</time>
      </trkpt>
      <trkpt lat="45.90232" lon="6.49154">
        <ele>2123.6</ele>
        <time>2013-11-28T12:17:09Z</time>
      </trkpt>
      <trkpt lat="45.9024" lon="6.49141">
        <ele>2118.6</ele>
        <time>2013-11-28T12:17:12Z</time>
      </trkpt>
      <trkpt lat="45.9025" lon="6.4913">
        <ele>2113.7</ele>
        <time>2013-11-28T12:17:15Z</time>
      </trkpt>
      <trkpt lat="45.90256" lon="6.49119">
        <ele>2110.7</ele>
        <time>2013-11-28T12:17:17Z</time>
      </trkpt>
      <trkpt lat="45.90264" lon="6.4911">
        <ele>2105.9</ele>
        <time>2013-11-28T12:17:20Z</time>
      </trkpt>
      <trkpt lat="45.90274" lon="6.49106">
        <ele>2098.7</ele>
        <time>2013-11-28T12:18:10Z</time>
      </trkpt>
      <trkpt lat="45.90286" lon="6.49083">
        <ele>2094.8</ele>
        <time>2013-11-28T12:18:17Z</time>
      </trkpt>
      <trkpt lat="45.90295" lon="6.49071">
        <ele>2089.5</ele>
        <time>2013-11-28T12:18:21Z</time>
      </trkpt>
      <trkpt lat="45.90301" lon="6.4906">
        <ele>2087</ele>
        <time>2013-11-28T12:18:23Z</time>
      </trkpt>
      <trkpt lat="45.90305" lon="6.49048">
        <ele>2084</ele>
        <time>2013-11-28T12:18:25Z</time>
      </trkpt>
      <trkpt lat="45.9031" lon="6.49035">
        <ele>2078.7</ele>
        <time>2013-11-28T12:18:29Z</time>
      </trkpt>
      <trkpt lat="45.90323" lon="6.4903">
        <ele>2074.5</ele>
        <time>2013-11-28T12:18:33Z</time>
      </trkpt>
      <trkpt lat="45.90326" lon="6.49014">
        <ele>2069.5</ele>
        <time>2013-11-28T12:18:37Z</time>
      </trkpt>
      <trkpt lat="45.90333" lon="6.49003">
        <ele>2064.1</ele>
        <time>2013-11-28T12:18:41Z</time>
      </trkpt>
      <trkpt lat="45.90342" lon="6.48995">
        <ele>2057.2</ele>
        <time>2013-11-28T12:18:46Z</time>
      </trkpt>
      <trkpt lat="45.90348" lon="6.4898">
        <ele>2050.9</ele>
        <time>2013-11-28T12:18:50Z</time>
      </trkpt>
      <trkpt lat="45.90348" lon="6.48966">
        <ele>2046.3</ele>
        <time>2013-11-28T12:18:53Z</time>
      </trkpt>
      <trkpt lat="45.90348" lon="6.48951">
        <ele>2040.6</ele>
        <time>2013-11-28T12:18:56Z</time>
      </trkpt>
      <trkpt lat="45.9035" lon="6.48935">
        <ele>2038.1</ele>
        <time>2013-11-28T12:18:58Z</time>
      </trkpt>
      <trkpt lat="45.90346" lon="6.48922">
        <ele>2034.1</ele>
        <time>2013-11-28T12:19:00Z</time>
      </trkpt>
      <trkpt lat="45.90347" lon="6.48909">
        <ele>2026.9</ele>
        <time>2013-11-28T12:19:23Z</time>
      </trkpt>
      <trkpt lat="45.90365" lon="6.48899">
        <ele>2024.3</ele>
        <time>2013-11-28T12:20:04Z</time>
      </trkpt>
      <trkpt lat="45.90374" lon="6.48896">
        <ele>2022.8</ele>
        <time>2013-11-28T12:20:06Z</time>
      </trkpt>
      <trkpt lat="45.90382" lon="6.48888">
        <ele>2020.4</ele>
        <time>2013-11-28T12:20:08Z</time>
      </trkpt>
      <trkpt lat="45.90388" lon="6.48878">
        <ele>2016.7</ele>
        <time>2013-11-28T12:20:18Z</time>
      </trkpt>
      <trkpt lat="45.90381" lon="6.48868">
        <ele>2015.8</ele>
        <time>2013-11-28T12:20:36Z</time>
      </trkpt>
      <trkpt lat="45.90361" lon="6.48858">
        <ele>2015.1</ele>
        <time>2013-11-28T12:20:42Z</time>
      </trkpt>
      <trkpt lat="45.90353" lon="6.48852">
        <ele>2014.3</ele>
        <time>2013-11-28T12:20:44Z</time>
      </trkpt>
      <trkpt lat="45.90349" lon="6.48838">
        <ele>2013</ele>
        <time>2013-11-28T12:20:46Z</time>
      </trkpt>
      <trkpt lat="45.90339" lon="6.48829">
        <ele>2011.6</ele>
        <time>2013-11-28T12:20:48Z</time>
      </trkpt>
      <trkpt lat="45.90333" lon="6.48818">
        <ele>2009.3</ele>
        <time>2013-11-28T12:20:50Z</time>
      </trkpt>
      <trkpt lat="45.90328" lon="6.48802">
        <ele>2007.3</ele>
        <time>2013-11-28T12:20:52Z</time>
      </trkpt>
      <trkpt lat="45.90317" lon="6.48792">
        <ele>2005</ele>
        <time>2013-11-28T12:20:54Z</time>
      </trkpt>
      <trkpt lat="45.90306" lon="6.48786">
        <ele>2002.9</ele>
        <time>2013-11-28T12:20:56Z</time>
      </trkpt>
      <trkpt lat="45.90302" lon="6.48773">
        <ele>2000</ele>
        <time>2013-11-28T12:20:58Z</time>
      </trkpt>
      <trkpt lat="45.90292" lon="6.48762">
        <ele>1997.8</ele>
        <time>2013-11-28T12:21:00Z</time>
      </trkpt>
      <trkpt lat="45.90286" lon="6.48746">
        <ele>1995.2</ele>
        <time>2013-11-28T12:21:02Z</time>
      </trkpt>
      <trkpt lat="45.9028" lon="6.48729">
        <ele>1991.8</ele>
        <time>2013-11-28T12:21:04Z</time>
      </trkpt>
      <trkpt lat="45.90271" lon="6.48717">
        <ele>1989.2</ele>
        <time>2013-11-28T12:21:06Z</time>
      </trkpt>
      <trkpt lat="45.90269" lon="6.48703">
        <ele>1986.4</ele>
        <time>2013-11-28T12:21:08Z</time>
      </trkpt>
      <trkpt lat="45.90261" lon="6.4869">
        <ele>1983.2</ele>
        <time>2013-11-28T12:21:10Z</time>
      </trkpt>
      <trkpt lat="45.90252" lon="6.48675">
        <ele>1980.7</ele>
        <time>2013-11-28T12:21:12Z</time>
      </trkpt>
      <trkpt lat="45.90245" lon="6.48656">
        <ele>1977.6</ele>
        <time>2013-11-28T12:21:14Z</time>
      </trkpt>
      <trkpt lat="45.90233" lon="6.4864">
        <ele>1974.3</ele>
        <time>2013-11-28T12:21:16Z</time>
      </trkpt>
      <trkpt lat="45.9022" lon="6.48625">
        <ele>1971.9</ele>
        <time>2013-11-28T12:21:18Z</time>
      </trkpt>
      <trkpt lat="45.90207" lon="6.48612">
        <ele>1969.9</ele>
        <time>2013-11-28T12:21:20Z</time>
      </trkpt>
      <trkpt lat="45.90195" lon="6.48604">
        <ele>1968</ele>
        <time>2013-11-28T12:21:22Z</time>
      </trkpt>
      <trkpt lat="45.90191" lon="6.48591">
        <ele>1965.7</ele>
        <time>2013-11-28T12:21:25Z</time>
      </trkpt>
      <trkpt lat="45.90185" lon="6.48581">
        <ele>1963.8</ele>
        <time>2013-11-28T12:21:28Z</time>
      </trkpt>
      <trkpt lat="45.90175" lon="6.48569">
        <ele>1962.6</ele>
        <time>2013-11-28T12:21:31Z</time>
      </trkpt>
      <trkpt lat="45.90167" lon="6.48559">
        <ele>1961.3</ele>
        <time>2013-11-28T12:21:33Z</time>
      </trkpt>
      <trkpt lat="45.90159" lon="6.48552">
        <ele>1960.1</ele>
        <time>2013-11-28T12:21:35Z</time>
      </trkpt>
      <trkpt lat="45.9015" lon="6.48539">
        <ele>1958.6</ele>
        <time>2013-11-28T12:21:38Z</time>
      </trkpt>
      <trkpt lat="45.90146" lon="6.48508">
        <ele>1956.2</ele>
        <time>2013-11-28T12:21:44Z</time>
      </trkpt>
      <trkpt lat="45.90152" lon="6.48492">
        <ele>1953</ele>
        <time>2013-11-28T12:21:46Z</time>
      </trkpt>
      <trkpt lat="45.90148" lon="6.48473">
        <ele>1949.8</ele>
        <time>2013-11-28T12:21:48Z</time>
      </trkpt>
      <trkpt lat="45.90139" lon="6.48457">
        <ele>1946.5</ele>
        <time>2013-11-28T12:21:50Z</time>
      </trkpt>
      <trkpt lat="45.90128" lon="6.48443">
        <ele>1943.5</ele>
        <time>2013-11-28T12:21:52Z</time>
      </trkpt>
      <trkpt lat="45.9012" lon="6.4843">
        <ele>1940.4</ele>
        <time>2013-11-28T12:21:54Z</time>
      </trkpt>
      <trkpt lat="45.90124" lon="6.48417">
        <ele>1938.1</ele>
        <time>2013-11-28T12:21:56Z</time>
      </trkpt>
      <trkpt lat="45.90124" lon="6.48398">
        <ele>1935.2</ele>
        <time>2013-11-28T12:21:58Z</time>
      </trkpt>
      <trkpt lat="45.90114" lon="6.4838">
        <ele>1930.6</ele>
        <time>2013-11-28T12:22:00Z</time>
      </trkpt>
      <trkpt lat="45.90104" lon="6.48366">
        <ele>1926</ele>
        <time>2013-11-28T12:22:02Z</time>
      </trkpt>
      <trkpt lat="45.90108" lon="6.48347">
        <ele>1920.7</ele>
        <time>2013-11-28T12:22:05Z</time>
      </trkpt>
      <trkpt lat="45.90103" lon="6.48331">
        <ele>1916.5</ele>
        <time>2013-11-28T12:22:07Z</time>
      </trkpt>
      <trkpt lat="45.90094" lon="6.48319">
        <ele>1913.1</ele>
        <time>2013-11-28T12:22:09Z</time>
      </trkpt>
      <trkpt lat="45.90094" lon="6.48305">
        <ele>1910</ele>
        <time>2013-11-28T12:22:11Z</time>
      </trkpt>
      <trkpt lat="45.90096" lon="6.48288">
        <ele>1905</ele>
        <time>2013-11-28T12:22:14Z</time>
      </trkpt>
      <trkpt lat="45.90094" lon="6.48273">
        <ele>1900.6</ele>
        <time>2013-11-28T12:22:17Z</time>
      </trkpt>
      <trkpt lat="45.90093" lon="6.48258">
        <ele>1896.3</ele>
        <time>2013-11-28T12:22:20Z</time>
      </trkpt>
      <trkpt lat="45.90085" lon="6.48246">
        <ele>1894.5</ele>
        <time>2013-11-28T12:22:22Z</time>
      </trkpt>
      <trkpt lat="45.90077" lon="6.48239">
        <ele>1891.2</ele>
        <time>2013-11-28T12:22:25Z</time>
      </trkpt>
      <trkpt lat="45.90074" lon="6.48222">
        <ele>1887.5</ele>
        <time>2013-11-28T12:22:35Z</time>
      </trkpt>
      <trkpt lat="45.90069" lon="6.48211">
        <ele>1887</ele>
        <time>2013-11-28T12:22:37Z</time>
      </trkpt>
      <trkpt lat="45.90069" lon="6.48197">
        <ele>1884.7</ele>
        <time>2013-11-28T12:22:39Z</time>
      </trkpt>
      <trkpt lat="45.90075" lon="6.4818">
        <ele>1882.5</ele>
        <time>2013-11-28T12:22:41Z</time>
      </trkpt>
      <trkpt lat="45.90081" lon="6.48179">
        <ele>1875.7</ele>
        <time>2013-11-28T12:23:15Z</time>
      </trkpt>
      <trkpt lat="45.9009" lon="6.48189">
        <ele>1874.4</ele>
        <time>2013-11-28T12:23:18Z</time>
      </trkpt>
      <trkpt lat="45.90099" lon="6.48197">
        <ele>1872.9</ele>
        <time>2013-11-28T12:23:21Z</time>
      </trkpt>
      <trkpt lat="45.90109" lon="6.48204">
        <ele>1869.9</ele>
        <time>2013-11-28T12:23:24Z</time>
      </trkpt>
      <trkpt lat="45.90116" lon="6.48197">
        <ele>1865.2</ele>
        <time>2013-11-28T12:23:30Z</time>
      </trkpt>
      <trkpt lat="45.90126" lon="6.48202">
        <ele>1862.8</ele>
        <time>2013-11-28T12:23:40Z</time>
      </trkpt>
      <trkpt lat="45.90135" lon="6.48198">
        <ele>1858.3</ele>
        <time>2013-11-28T12:24:06Z</time>
      </trkpt>
      <trkpt lat="45.90155" lon="6.48215">
        <ele>1856.1</ele>
        <time>2013-11-28T12:24:15Z</time>
      </trkpt>
      <trkpt lat="45.90164" lon="6.48209">
        <ele>1852.5</ele>
        <time>2013-11-28T12:24:20Z</time>
      </trkpt>
      <trkpt lat="45.90158" lon="6.48197">
        <ele>1850</ele>
        <time>2013-11-28T12:24:37Z</time>
      </trkpt>
      <trkpt lat="45.90152" lon="6.48186">
        <ele>1847.6</ele>
        <time>2013-11-28T12:24:42Z</time>
      </trkpt>
      <trkpt lat="45.9016" lon="6.48178">
        <ele>1841.6</ele>
        <time>2013-11-28T12:24:56Z</time>
      </trkpt>
      <trkpt lat="45.90163" lon="6.48165">
        <ele>1832.5</ele>
        <time>2013-11-28T12:25:06Z</time>
      </trkpt>
      <trkpt lat="45.90172" lon="6.48159">
        <ele>1826.4</ele>
        <time>2013-11-28T12:25:26Z</time>
      </trkpt>
      <trkpt lat="45.90178" lon="6.48132">
        <ele>1817.8</ele>
        <time>2013-11-28T12:25:36Z</time>
      </trkpt>
      <trkpt lat="45.90187" lon="6.48124">
        <ele>1811.6</ele>
        <time>2013-11-28T12:25:41Z</time>
      </trkpt>
      <trkpt lat="45.90195" lon="6.48116">
        <ele>1804.7</ele>
        <time>2013-11-28T12:25:46Z</time>
      </trkpt>
      <trkpt lat="45.902" lon="6.48102">
        <ele>1799.7</ele>
        <time>2013-11-28T12:25:50Z</time>
      </trkpt>
      <trkpt lat="45.90203" lon="6.48089">
        <ele>1792.9</ele>
        <time>2013-11-28T12:25:55Z</time>
      </trkpt>
      <trkpt lat="45.90211" lon="6.48083">
        <ele>1786.9</ele>
        <time>2013-11-28T12:26:02Z</time>
      </trkpt>
      <trkpt lat="45.90213" lon="6.48068">
        <ele>1782.6</ele>
        <time>2013-11-28T12:26:07Z</time>
      </trkpt>
      <trkpt lat="45.90219" lon="6.48055">
        <ele>1776.6</ele>
        <time>2013-11-28T12:26:12Z</time>
      </trkpt>
      <trkpt lat="45.9023" lon="6.48051">
        <ele>1766.2</ele>
        <time>2013-11-28T12:27:07Z</time>
      </trkpt>
      <trkpt lat="45.90241" lon="6.48027">
        <ele>1757.1</ele>
        <time>2013-11-28T12:27:17Z</time>
      </trkpt>
      <trkpt lat="45.9024" lon="6.48013">
        <ele>1753.1</ele>
        <time>2013-11-28T12:27:21Z</time>
      </trkpt>
      <trkpt lat="45.90236" lon="6.47998">
        <ele>1745.8</ele>
        <time>2013-11-28T12:27:26Z</time>
      </trkpt>
      <trkpt lat="45.90239" lon="6.47986">
        <ele>1741.1</ele>
        <time>2013-11-28T12:27:31Z</time>
      </trkpt>
      <trkpt lat="45.90239" lon="6.47971">
        <ele>1737.4</ele>
        <time>2013-11-28T12:27:35Z</time>
      </trkpt>
      <trkpt lat="45.90238" lon="6.47955">
        <ele>1730.9</ele>
        <time>2013-11-28T12:27:39Z</time>
      </trkpt>
      <trkpt lat="45.90236" lon="6.47942">
        <ele>1726.1</ele>
        <time>2013-11-28T12:27:44Z</time>
      </trkpt>
      <trkpt lat="45.90243" lon="6.47932">
        <ele>1723.6</ele>
        <time>2013-11-28T12:27:47Z</time>
      </trkpt>
      <trkpt lat="45.90239" lon="6.47916">
        <ele>1720.2</ele>
        <time>2013-11-28T12:27:50Z</time>
      </trkpt>
      <trkpt lat="45.90241" lon="6.47903">
        <ele>1716.8</ele>
        <time>2013-11-28T12:27:53Z</time>
      </trkpt>
      <trkpt lat="45.9025" lon="6.47895">
        <ele>1712.7</ele>
        <time>2013-11-28T12:27:56Z</time>
      </trkpt>
      <trkpt lat="45.90256" lon="6.47885">
        <ele>1702.8</ele>
        <time>2013-11-28T12:28:03Z</time>
      </trkpt>
      <trkpt lat="45.90264" lon="6.47876">
        <ele>1698.5</ele>
        <time>2013-11-28T12:28:09Z</time>
      </trkpt>
      <trkpt lat="45.90273" lon="6.47849">
        <ele>1688.8</ele>
        <time>2013-11-28T12:28:19Z</time>
      </trkpt>
      <trkpt lat="45.90277" lon="6.47834">
        <ele>1684.6</ele>
        <time>2013-11-28T12:28:23Z</time>
      </trkpt>
      <trkpt lat="45.90286" lon="6.4783">
        <ele>1674.2</ele>
        <time>2013-11-28T12:28:35Z</time>
      </trkpt>
      <trkpt lat="45.9028" lon="6.47815">
        <ele>1672.6</ele>
        <time>2013-11-28T12:28:49Z</time>
      </trkpt>
      <trkpt lat="45.90276" lon="6.47802">
        <ele>1670.8</ele>
        <time>2013-11-28T12:28:52Z</time>
      </trkpt>
      <trkpt lat="45.90279" lon="6.47786">
        <ele>1667.5</ele>
        <time>2013-11-28T12:28:55Z</time>
      </trkpt>
      <trkpt lat="45.9028" lon="6.47768">
        <ele>1664.7</ele>
        <time>2013-11-28T12:28:58Z</time>
      </trkpt>
      <trkpt lat="45.90284" lon="6.47755">
        <ele>1662.3</ele>
        <time>2013-11-28T12:29:00Z</time>
      </trkpt>
      <trkpt lat="45.90282" lon="6.47742">
        <ele>1658.7</ele>
        <time>2013-11-28T12:29:02Z</time>
      </trkpt>
      <trkpt lat="45.90287" lon="6.47729">
        <ele>1656</ele>
        <time>2013-11-28T12:29:04Z</time>
      </trkpt>
      <trkpt lat="45.90292" lon="6.47714">
        <ele>1653.6</ele>
        <time>2013-11-28T12:29:06Z</time>
      </trkpt>
      <trkpt lat="45.90289" lon="6.47699">
        <ele>1652</ele>
        <time>2013-11-28T12:29:08Z</time>
      </trkpt>
      <trkpt lat="45.90288" lon="6.47685">
        <ele>1650.3</ele>
        <time>2013-11-28T12:29:10Z</time>
      </trkpt>
      <trkpt lat="45.9028" lon="6.47658">
        <ele>1645.8</ele>
        <time>2013-11-28T12:29:14Z</time>
      </trkpt>
      <trkpt lat="45.90274" lon="6.47646">
        <ele>1644</ele>
        <time>2013-11-28T12:29:16Z</time>
      </trkpt>
      <trkpt lat="45.90265" lon="6.47637">
        <ele>1642.2</ele>
        <time>2013-11-28T12:29:18Z</time>
      </trkpt>
      <trkpt lat="45.90261" lon="6.47621">
        <ele>1641.1</ele>
        <time>2013-11-28T12:29:20Z</time>
      </trkpt>
      <trkpt lat="45.90254" lon="6.47612">
        <ele>1638.1</ele>
        <time>2013-11-28T12:29:22Z</time>
      </trkpt>
      <trkpt lat="45.9025" lon="6.476">
        <ele>1635.6</ele>
        <time>2013-11-28T12:29:24Z</time>
      </trkpt>
      <trkpt lat="45.90242" lon="6.4759">
        <ele>1632.5</ele>
        <time>2013-11-28T12:29:26Z</time>
      </trkpt>
      <trkpt lat="45.90235" lon="6.47578">
        <ele>1630.2</ele>
        <time>2013-11-28T12:29:28Z</time>
      </trkpt>
      <trkpt lat="45.90231" lon="6.47565">
        <ele>1627.6</ele>
        <time>2013-11-28T12:29:30Z</time>
      </trkpt>
      <trkpt lat="45.90222" lon="6.47556">
        <ele>1624.9</ele>
        <time>2013-11-28T12:29:32Z</time>
      </trkpt>
      <trkpt lat="45.90214" lon="6.47545">
        <ele>1622.9</ele>
        <time>2013-11-28T12:29:34Z</time>
      </trkpt>
      <trkpt lat="45.90207" lon="6.47531">
        <ele>1621.4</ele>
        <time>2013-11-28T12:29:36Z</time>
      </trkpt>
      <trkpt lat="45.90201" lon="6.47517">
        <ele>1619.8</ele>
        <time>2013-11-28T12:29:38Z</time>
      </trkpt>
      <trkpt lat="45.90194" lon="6.47503">
        <ele>1618.9</ele>
        <time>2013-11-28T12:29:40Z</time>
      </trkpt>
      <trkpt lat="45.90187" lon="6.4749">
        <ele>1617.2</ele>
        <time>2013-11-28T12:29:42Z</time>
      </trkpt>
      <trkpt lat="45.90181" lon="6.47473">
        <ele>1615</ele>
        <time>2013-11-28T12:29:44Z</time>
      </trkpt>
      <trkpt lat="45.90173" lon="6.47455">
        <ele>1613.5</ele>
        <time>2013-11-28T12:29:46Z</time>
      </trkpt>
      <trkpt lat="45.90161" lon="6.47438">
        <ele>1611.8</ele>
        <time>2013-11-28T12:29:48Z</time>
      </trkpt>
      <trkpt lat="45.9015" lon="6.47418">
        <ele>1609.6</ele>
        <time>2013-11-28T12:29:50Z</time>
      </trkpt>
      <trkpt lat="45.90147" lon="6.47396">
        <ele>1607</ele>
        <time>2013-11-28T12:29:52Z</time>
      </trkpt>
      <trkpt lat="45.90148" lon="6.47372">
        <ele>1604.8</ele>
        <time>2013-11-28T12:29:54Z</time>
      </trkpt>
      <trkpt lat="45.90143" lon="6.47352">
        <ele>1602.2</ele>
        <time>2013-11-28T12:29:56Z</time>
      </trkpt>
      <trkpt lat="45.90144" lon="6.47333">
        <ele>1599</ele>
        <time>2013-11-28T12:29:58Z</time>
      </trkpt>
      <trkpt lat="45.90138" lon="6.47316">
        <ele>1596.4</ele>
        <time>2013-11-28T12:30:00Z</time>
      </trkpt>
      <trkpt lat="45.90145" lon="6.47306">
        <ele>1588.8</ele>
        <time>2013-11-28T12:31:36Z</time>
      </trkpt>
      <trkpt lat="45.90164" lon="6.47289">
        <ele>1579.7</ele>
        <time>2013-11-28T12:31:46Z</time>
      </trkpt>
      <trkpt lat="45.90166" lon="6.47275">
        <ele>1575.4</ele>
        <time>2013-11-28T12:31:50Z</time>
      </trkpt>
      <trkpt lat="45.90176" lon="6.4727">
        <ele>1569</ele>
        <time>2013-11-28T12:31:55Z</time>
      </trkpt>
      <trkpt lat="45.90182" lon="6.47259">
        <ele>1565</ele>
        <time>2013-11-28T12:31:59Z</time>
      </trkpt>
      <trkpt lat="45.90186" lon="6.47247">
        <ele>1560.9</ele>
        <time>2013-11-28T12:32:02Z</time>
      </trkpt>
      <trkpt lat="45.90198" lon="6.47242">
        <ele>1555.9</ele>
        <time>2013-11-28T12:32:06Z</time>
      </trkpt>
      <trkpt lat="45.90207" lon="6.47236">
        <ele>1550.3</ele>
        <time>2013-11-28T12:32:10Z</time>
      </trkpt>
      <trkpt lat="45.90214" lon="6.47226">
        <ele>1544.5</ele>
        <time>2013-11-28T12:32:14Z</time>
      </trkpt>
      <trkpt lat="45.90224" lon="6.47225">
        <ele>1540.9</ele>
        <time>2013-11-28T12:32:17Z</time>
      </trkpt>
      <trkpt lat="45.90233" lon="6.47219">
        <ele>1535.8</ele>
        <time>2013-11-28T12:32:21Z</time>
      </trkpt>
      <trkpt lat="45.90241" lon="6.47212">
        <ele>1530.4</ele>
        <time>2013-11-28T12:32:24Z</time>
      </trkpt>
      <trkpt lat="45.90251" lon="6.47208">
        <ele>1526.1</ele>
        <time>2013-11-28T12:32:27Z</time>
      </trkpt>
      <trkpt lat="45.90262" lon="6.47205">
        <ele>1520.6</ele>
        <time>2013-11-28T12:32:30Z</time>
      </trkpt>
      <trkpt lat="45.90271" lon="6.47198">
        <ele>1516.5</ele>
        <time>2013-11-28T12:32:33Z</time>
      </trkpt>
      <trkpt lat="45.90282" lon="6.47196">
        <ele>1511.8</ele>
        <time>2013-11-28T12:32:36Z</time>
      </trkpt>
      <trkpt lat="45.90293" lon="6.4719">
        <ele>1507.8</ele>
        <time>2013-11-28T12:32:39Z</time>
      </trkpt>
      <trkpt lat="45.90315" lon="6.47188">
        <ele>1498.3</ele>
        <time>2013-11-28T12:32:45Z</time>
      </trkpt>
      <trkpt lat="45.90325" lon="6.4718">
        <ele>1494.4</ele>
        <time>2013-11-28T12:32:48Z</time>
      </trkpt>
      <trkpt lat="45.90334" lon="6.47185">
        <ele>1490.4</ele>
        <time>2013-11-28T12:32:50Z</time>
      </trkpt>
      <trkpt lat="45.90345" lon="6.47185">
        <ele>1487.6</ele>
        <time>2013-11-28T12:32:52Z</time>
      </trkpt>
      <trkpt lat="45.90351" lon="6.47174">
        <ele>1484.3</ele>
        <time>2013-11-28T12:32:54Z</time>
      </trkpt>
      <trkpt lat="45.90364" lon="6.47176">
        <ele>1478.9</ele>
        <time>2013-11-28T12:32:57Z</time>
      </trkpt>
      <trkpt lat="45.90374" lon="6.47173">
        <ele>1475.7</ele>
        <time>2013-11-28T12:32:59Z</time>
      </trkpt>
      <trkpt lat="45.90382" lon="6.47165">
        <ele>1472.5</ele>
        <time>2013-11-28T12:33:01Z</time>
      </trkpt>
      <trkpt lat="45.90391" lon="6.47169">
        <ele>1468.6</ele>
        <time>2013-11-28T12:33:04Z</time>
      </trkpt>
      <trkpt lat="45.90397" lon="6.47179">
        <ele>1462.9</ele>
        <time>2013-11-28T12:33:19Z</time>
      </trkpt>
      <trkpt lat="45.90405" lon="6.47192">
        <ele>1463.7</ele>
        <time>2013-11-28T12:34:07Z</time>
      </trkpt>
      <trkpt lat="45.90421" lon="6.47199">
        <ele>1458.8</ele>
        <time>2013-11-28T12:34:13Z</time>
      </trkpt>
      <trkpt lat="45.90431" lon="6.47193">
        <ele>1456.6</ele>
        <time>2013-11-28T12:34:16Z</time>
      </trkpt>
      <trkpt lat="45.90441" lon="6.47182">
        <ele>1453.1</ele>
        <time>2013-11-28T12:34:19Z</time>
      </trkpt>
      <trkpt lat="45.90448" lon="6.47174">
        <ele>1451.7</ele>
        <time>2013-11-28T12:34:21Z</time>
      </trkpt>
      <trkpt lat="45.90459" lon="6.47167">
        <ele>1446.9</ele>
        <time>2013-11-28T12:34:24Z</time>
      </trkpt>
      <trkpt lat="45.9047" lon="6.47163">
        <ele>1443.3</ele>
        <time>2013-11-28T12:34:28Z</time>
      </trkpt>
      <trkpt lat="45.90478" lon="6.47157">
        <ele>1441.4</ele>
        <time>2013-11-28T12:34:30Z</time>
      </trkpt>
      <trkpt lat="45.90488" lon="6.47153">
        <ele>1439.6</ele>
        <time>2013-11-28T12:34:32Z</time>
      </trkpt>
      <trkpt lat="45.90496" lon="6.47145">
        <ele>1438.2</ele>
        <time>2013-11-28T12:34:34Z</time>
      </trkpt>
      <trkpt lat="45.90506" lon="6.47148">
        <ele>1435.8</ele>
        <time>2013-11-28T12:34:36Z</time>
      </trkpt>
      <trkpt lat="45.90515" lon="6.47138">
        <ele>1432</ele>
        <time>2013-11-28T12:34:39Z</time>
      </trkpt>
      <trkpt lat="45.90525" lon="6.47134">
        <ele>1428.7</ele>
        <time>2013-11-28T12:34:44Z</time>
      </trkpt>
      <trkpt lat="45.90527" lon="6.47119">
        <ele>1427.1</ele>
        <time>2013-11-28T12:34:47Z</time>
      </trkpt>
      <trkpt lat="45.90539" lon="6.47113">
        <ele>1423.8</ele>
        <time>2013-11-28T12:34:51Z</time>
      </trkpt>
      <trkpt lat="45.90548" lon="6.47121">
        <ele>1422.3</ele>
        <time>2013-11-28T12:34:53Z</time>
      </trkpt>
      <trkpt lat="45.90557" lon="6.47118">
        <ele>1420.2</ele>
        <time>2013-11-28T12:34:55Z</time>
      </trkpt>
      <trkpt lat="45.90566" lon="6.47115">
        <ele>1418.4</ele>
        <time>2013-11-28T12:34:57Z</time>
      </trkpt>
      <trkpt lat="45.90575" lon="6.47108">
        <ele>1415.8</ele>
        <time>2013-11-28T12:34:59Z</time>
      </trkpt>
      <trkpt lat="45.90586" lon="6.47102">
        <ele>1414.3</ele>
        <time>2013-11-28T12:35:01Z</time>
      </trkpt>
      <trkpt lat="45.90594" lon="6.47092">
        <ele>1413</ele>
        <time>2013-11-28T12:35:03Z</time>
      </trkpt>
      <trkpt lat="45.90606" lon="6.47089">
        <ele>1410.5</ele>
        <time>2013-11-28T12:35:07Z</time>
      </trkpt>
      <trkpt lat="45.90617" lon="6.47088">
        <ele>1408.4</ele>
        <time>2013-11-28T12:35:10Z</time>
      </trkpt>
      <trkpt lat="45.90635" lon="6.47099">
        <ele>1406</ele>
        <time>2013-11-28T12:35:14Z</time>
      </trkpt>
      <trkpt lat="45.90646" lon="6.47102">
        <ele>1404.1</ele>
        <time>2013-11-28T12:35:16Z</time>
      </trkpt>
      <trkpt lat="45.90657" lon="6.47103">
        <ele>1402.6</ele>
        <time>2013-11-28T12:35:18Z</time>
      </trkpt>
      <trkpt lat="45.90666" lon="6.47111">
        <ele>1401.8</ele>
        <time>2013-11-28T12:35:21Z</time>
      </trkpt>
      <trkpt lat="45.90676" lon="6.47114">
        <ele>1401</ele>
        <time>2013-11-28T12:35:24Z</time>
      </trkpt>
      <trkpt lat="45.90685" lon="6.47121">
        <ele>1399.4</ele>
        <time>2013-11-28T12:35:30Z</time>
      </trkpt>
      <trkpt lat="45.90694" lon="6.47127">
        <ele>1398.1</ele>
        <time>2013-11-28T12:35:36Z</time>
      </trkpt>
      <trkpt lat="45.90703" lon="6.47138">
        <ele>1397.6</ele>
        <time>2013-11-28T12:35:39Z</time>
      </trkpt>
      <trkpt lat="45.9071" lon="6.47151">
        <ele>1394.8</ele>
        <time>2013-11-28T12:35:42Z</time>
      </trkpt>
      <trkpt lat="45.90716" lon="6.47165">
        <ele>1392.4</ele>
        <time>2013-11-28T12:35:45Z</time>
      </trkpt>
      <trkpt lat="45.90721" lon="6.47179">
        <ele>1390</ele>
        <time>2013-11-28T12:35:48Z</time>
      </trkpt>
      <trkpt lat="45.90725" lon="6.47192">
        <ele>1388.6</ele>
        <time>2013-11-28T12:35:51Z</time>
      </trkpt>
      <trkpt lat="45.90729" lon="6.47208">
        <ele>1385.8</ele>
        <time>2013-11-28T12:35:54Z</time>
      </trkpt>
      <trkpt lat="45.90731" lon="6.47225">
        <ele>1384.1</ele>
        <time>2013-11-28T12:35:58Z</time>
      </trkpt>
      <trkpt lat="45.90732" lon="6.47238">
        <ele>1380.7</ele>
        <time>2013-11-28T12:36:05Z</time>
      </trkpt>
      <trkpt lat="45.90733" lon="6.47252">
        <ele>1380.3</ele>
        <time>2013-11-28T12:36:08Z</time>
      </trkpt>
      <trkpt lat="45.90739" lon="6.47269">
        <ele>1379.5</ele>
        <time>2013-11-28T12:36:11Z</time>
      </trkpt>
      <trkpt lat="45.90749" lon="6.47269">
        <ele>1375.8</ele>
        <time>2013-11-28T12:36:21Z</time>
      </trkpt>
      <trkpt lat="45.90758" lon="6.47264">
        <ele>1372.5</ele>
        <time>2013-11-28T12:36:27Z</time>
      </trkpt>
      <trkpt lat="45.90767" lon="6.47259">
        <ele>1369.6</ele>
        <time>2013-11-28T12:36:31Z</time>
      </trkpt>
      <trkpt lat="45.90774" lon="6.4725">
        <ele>1365.4</ele>
        <time>2013-11-28T12:36:35Z</time>
      </trkpt>
      <trkpt lat="45.90781" lon="6.47242">
        <ele>1358.8</ele>
        <time>2013-11-28T12:36:47Z</time>
      </trkpt>
      <trkpt lat="45.90793" lon="6.47239">
        <ele>1356.2</ele>
        <time>2013-11-28T12:36:51Z</time>
      </trkpt>
      <trkpt lat="45.90802" lon="6.47237">
        <ele>1354.7</ele>
        <time>2013-11-28T12:36:53Z</time>
      </trkpt>
      <trkpt lat="45.90811" lon="6.47232">
        <ele>1352</ele>
        <time>2013-11-28T12:36:55Z</time>
      </trkpt>
      <trkpt lat="45.90823" lon="6.47231">
        <ele>1348.4</ele>
        <time>2013-11-28T12:36:58Z</time>
      </trkpt>
      <trkpt lat="45.90835" lon="6.47227">
        <ele>1346.4</ele>
        <time>2013-11-28T12:37:01Z</time>
      </trkpt>
      <trkpt lat="45.90844" lon="6.47222">
        <ele>1345.4</ele>
        <time>2013-11-28T12:37:03Z</time>
      </trkpt>
      <trkpt lat="45.90857" lon="6.47217">
        <ele>1344</ele>
        <time>2013-11-28T12:37:06Z</time>
      </trkpt>
      <trkpt lat="45.9087" lon="6.47213">
        <ele>1342.6</ele>
        <time>2013-11-28T12:37:09Z</time>
      </trkpt>
      <trkpt lat="45.90879" lon="6.47208">
        <ele>1340.5</ele>
        <time>2013-11-28T12:37:11Z</time>
      </trkpt>
      <trkpt lat="45.90887" lon="6.47199">
        <ele>1339.3</ele>
        <time>2013-11-28T12:37:13Z</time>
      </trkpt>
      <trkpt lat="45.90907" lon="6.4718">
        <ele>1335.2</ele>
        <time>2013-11-28T12:37:17Z</time>
      </trkpt>
      <trkpt lat="45.90918" lon="6.47168">
        <ele>1332.3</ele>
        <time>2013-11-28T12:37:19Z</time>
      </trkpt>
      <trkpt lat="45.90928" lon="6.47155">
        <ele>1329.5</ele>
        <time>2013-11-28T12:37:21Z</time>
      </trkpt>
      <trkpt lat="45.90938" lon="6.47139">
        <ele>1327.3</ele>
        <time>2013-11-28T12:37:23Z</time>
      </trkpt>
      <trkpt lat="45.90947" lon="6.47122">
        <ele>1325.4</ele>
        <time>2013-11-28T12:37:25Z</time>
      </trkpt>
      <trkpt lat="45.90954" lon="6.47106">
        <ele>1323.4</ele>
        <time>2013-11-28T12:37:27Z</time>
      </trkpt>
      <trkpt lat="45.90961" lon="6.47091">
        <ele>1321.4</ele>
        <time>2013-11-28T12:37:29Z</time>
      </trkpt>
      <trkpt lat="45.90968" lon="6.47079">
        <ele>1319.8</ele>
        <time>2013-11-28T12:37:31Z</time>
      </trkpt>
      <trkpt lat="45.90976" lon="6.47069">
        <ele>1318</ele>
        <time>2013-11-28T12:37:33Z</time>
      </trkpt>
      <trkpt lat="45.90984" lon="6.47058">
        <ele>1316.6</ele>
        <time>2013-11-28T12:37:35Z</time>
      </trkpt>
      <trkpt lat="45.9099" lon="6.47047">
        <ele>1315.5</ele>
        <time>2013-11-28T12:37:37Z</time>
      </trkpt>
      <trkpt lat="45.90995" lon="6.47032">
        <ele>1314.4</ele>
        <time>2013-11-28T12:37:40Z</time>
      </trkpt>
      <trkpt lat="45.91001" lon="6.47018">
        <ele>1313.7</ele>
        <time>2013-11-28T12:37:43Z</time>
      </trkpt>
      <trkpt lat="45.91006" lon="6.47006">
        <ele>1312.9</ele>
        <time>2013-11-28T12:37:45Z</time>
      </trkpt>
      <trkpt lat="45.91012" lon="6.46995">
        <ele>1311.6</ele>
        <time>2013-11-28T12:37:47Z</time>
      </trkpt>
      <trkpt lat="45.91018" lon="6.46983">
        <ele>1309.7</ele>
        <time>2013-11-28T12:37:49Z</time>
      </trkpt>
      <trkpt lat="45.91024" lon="6.4697">
        <ele>1308.1</ele>
        <time>2013-11-28T12:37:51Z</time>
      </trkpt>
      <trkpt lat="45.91028" lon="6.46956">
        <ele>1306.4</ele>
        <time>2013-11-28T12:37:53Z</time>
      </trkpt>
      <trkpt lat="45.91032" lon="6.46942">
        <ele>1305.3</ele>
        <time>2013-11-28T12:37:55Z</time>
      </trkpt>
      <trkpt lat="45.91038" lon="6.46931">
        <ele>1304</ele>
        <time>2013-11-28T12:37:57Z</time>
      </trkpt>
      <trkpt lat="45.91042" lon="6.46918">
        <ele>1302.2</ele>
        <time>2013-11-28T12:37:59Z</time>
      </trkpt>
      <trkpt lat="45.91046" lon="6.46902">
        <ele>1299.6</ele>
        <time>2013-11-28T12:38:01Z</time>
      </trkpt>
      <trkpt lat="45.91051" lon="6.46882">
        <ele>1297.8</ele>
        <time>2013-11-28T12:38:03Z</time>
      </trkpt>
      <trkpt lat="45.91053" lon="6.46862">
        <ele>1296.1</ele>
        <time>2013-11-28T12:38:05Z</time>
      </trkpt>
      <trkpt lat="45.91053" lon="6.46842">
        <ele>1294.3</ele>
        <time>2013-11-28T12:38:07Z</time>
      </trkpt>
      <trkpt lat="45.91054" lon="6.46825">
        <ele>1292.8</ele>
        <time>2013-11-28T12:38:09Z</time>
      </trkpt>
      <trkpt lat="45.91056" lon="6.4681">
        <ele>1292.4</ele>
        <time>2013-11-28T12:38:11Z</time>
      </trkpt>
      <trkpt lat="45.91059" lon="6.46797">
        <ele>1291.8</ele>
        <time>2013-11-28T12:38:13Z</time>
      </trkpt>
      <trkpt lat="45.91063" lon="6.4678">
        <ele>1291.7</ele>
        <time>2013-11-28T12:38:16Z</time>
      </trkpt>
      <trkpt lat="45.91065" lon="6.46748">
        <ele>1290.4</ele>
        <time>2013-11-28T12:38:22Z</time>
      </trkpt>
      <trkpt lat="45.91067" lon="6.4673">
        <ele>1289.4</ele>
        <time>2013-11-28T12:38:25Z</time>
      </trkpt>
      <trkpt lat="45.91062" lon="6.46717">
        <ele>1288.2</ele>
        <time>2013-11-28T12:39:48Z</time>
      </trkpt>
      <trkpt lat="45.91066" lon="6.46691">
        <ele>1288.2</ele>
        <time>2013-11-28T12:40:04Z</time>
      </trkpt>
      <trkpt lat="45.91068" lon="6.46677">
        <ele>1288.6</ele>
        <time>2013-11-28T12:40:13Z</time>
      </trkpt>
      <trkpt lat="45.91071" lon="6.46664">
        <ele>1287.9</ele>
        <time>2013-11-28T12:40:21Z</time>
      </trkpt>
      <trkpt lat="45.91074" lon="6.4665">
        <ele>1287.2</ele>
        <time>2013-11-28T12:40:29Z</time>
      </trkpt>
      <trkpt lat="45.91075" lon="6.46637">
        <ele>1287.9</ele>
        <time>2013-11-28T12:40:37Z</time>
      </trkpt>
      <trkpt lat="45.91078" lon="6.46623">
        <ele>1288.1</ele>
        <time>2013-11-28T12:40:45Z</time>
      </trkpt>
      <trkpt lat="45.91077" lon="6.46623">
        <ele>1288</ele>
        <time>2013-11-28T12:42:33Z</time>
      </trkpt>
    </trkseg>
  </trk>
</gpx>